<?xml version="1.0" encoding="UTF-8" standalone="no" ?>
<gpx xmlns="http://www.topografix.com/GPX/1/1" xmlns:xsi="http://www.w3.org/2001/XMLSchema-instance" xsi:schemaLocation="http://www.topografix.com/GPX/1/1 http://www.topografix.com/GPX/1/1/gpx.xsd" version="1.1" creator="VisuGPX - https://www.visugpx.com">
  <metadata>
    <name>beaumontel</name>
  </metadata>
  <trk>
    <name><![CDATA[2020-09-17 14:54:57]]></name>
    <trkseg>
      <trkpt lat="49.08741" lon="0.76327">
        <ele>86.66</ele>
        <time>2020-09-17T11:49:10Z</time>
      </trkpt>
      <trkpt lat="49.08741" lon="0.76327">
        <ele>86.66</ele>
        <time>2020-09-17T11:49:11Z</time>
      </trkpt>
      <trkpt lat="49.08742" lon="0.76328">
        <ele>86.18</ele>
        <time>2020-09-17T11:49:17Z</time>
      </trkpt>
      <trkpt lat="49.08744" lon="0.76328">
        <ele>86.18</ele>
        <time>2020-09-17T11:49:18Z</time>
      </trkpt>
      <trkpt lat="49.08747" lon="0.76327">
        <ele>86.18</ele>
        <time>2020-09-17T11:49:19Z</time>
      </trkpt>
      <trkpt lat="49.0875" lon="0.76325">
        <ele>86.18</ele>
        <time>2020-09-17T11:49:20Z</time>
      </trkpt>
      <trkpt lat="49.08753" lon="0.76323">
        <ele>86.18</ele>
        <time>2020-09-17T11:49:21Z</time>
      </trkpt>
      <trkpt lat="49.08796" lon="0.7629">
        <ele>84.25</ele>
        <time>2020-09-17T11:49:30Z</time>
      </trkpt>
      <trkpt lat="49.08839" lon="0.76242">
        <ele>84.25</ele>
        <time>2020-09-17T11:49:39Z</time>
      </trkpt>
      <trkpt lat="49.0889" lon="0.76133">
        <ele>83.29</ele>
        <time>2020-09-17T11:49:52Z</time>
      </trkpt>
      <trkpt lat="49.08946" lon="0.76011">
        <ele>83.29</ele>
        <time>2020-09-17T11:50:07Z</time>
      </trkpt>
      <trkpt lat="49.08962" lon="0.75979">
        <ele>84.73</ele>
        <time>2020-09-17T11:50:11Z</time>
      </trkpt>
      <trkpt lat="49.09003" lon="0.75882">
        <ele>83.29</ele>
        <time>2020-09-17T11:50:23Z</time>
      </trkpt>
      <trkpt lat="49.09079" lon="0.75732">
        <ele>83.29</ele>
        <time>2020-09-17T11:50:42Z</time>
      </trkpt>
      <trkpt lat="49.09103" lon="0.75697">
        <ele>83.29</ele>
        <time>2020-09-17T11:50:47Z</time>
      </trkpt>
      <trkpt lat="49.09113" lon="0.75683">
        <ele>83.29</ele>
        <time>2020-09-17T11:50:49Z</time>
      </trkpt>
      <trkpt lat="49.09146" lon="0.75647">
        <ele>82.81</ele>
        <time>2020-09-17T11:50:55Z</time>
      </trkpt>
      <trkpt lat="49.0922" lon="0.7559">
        <ele>81.85</ele>
        <time>2020-09-17T11:51:09Z</time>
      </trkpt>
      <trkpt lat="49.09247" lon="0.75555">
        <ele>83.29</ele>
        <time>2020-09-17T11:51:15Z</time>
      </trkpt>
      <trkpt lat="49.09313" lon="0.75446">
        <ele>83.29</ele>
        <time>2020-09-17T11:51:31Z</time>
      </trkpt>
      <trkpt lat="49.09382" lon="0.75322">
        <ele>83.29</ele>
        <time>2020-09-17T11:51:49Z</time>
      </trkpt>
      <trkpt lat="49.09445" lon="0.75199">
        <ele>82.33</ele>
        <time>2020-09-17T11:52:05Z</time>
      </trkpt>
      <trkpt lat="49.09494" lon="0.75094">
        <ele>82.33</ele>
        <time>2020-09-17T11:52:19Z</time>
      </trkpt>
      <trkpt lat="49.09516" lon="0.75037">
        <ele>82.33</ele>
        <time>2020-09-17T11:52:26Z</time>
      </trkpt>
      <trkpt lat="49.09552" lon="0.74973">
        <ele>81.85</ele>
        <time>2020-09-17T11:52:35Z</time>
      </trkpt>
      <trkpt lat="49.09595" lon="0.74924">
        <ele>81.37</ele>
        <time>2020-09-17T11:52:45Z</time>
      </trkpt>
      <trkpt lat="49.09601" lon="0.74919">
        <ele>81.37</ele>
        <time>2020-09-17T11:52:46Z</time>
      </trkpt>
      <trkpt lat="49.09657" lon="0.74855">
        <ele>81.37</ele>
        <time>2020-09-17T11:52:59Z</time>
      </trkpt>
      <trkpt lat="49.09698" lon="0.74791">
        <ele>80.89</ele>
        <time>2020-09-17T11:53:12Z</time>
      </trkpt>
      <trkpt lat="49.09712" lon="0.74753">
        <ele>80.89</ele>
        <time>2020-09-17T11:53:18Z</time>
      </trkpt>
      <trkpt lat="49.09715" lon="0.74748">
        <ele>80.89</ele>
        <time>2020-09-17T11:53:19Z</time>
      </trkpt>
      <trkpt lat="49.09773" lon="0.74677">
        <ele>80.89</ele>
        <time>2020-09-17T11:53:34Z</time>
      </trkpt>
      <trkpt lat="49.09807" lon="0.74631">
        <ele>80.89</ele>
        <time>2020-09-17T11:53:43Z</time>
      </trkpt>
      <trkpt lat="49.0981" lon="0.74625">
        <ele>80.89</ele>
        <time>2020-09-17T11:53:44Z</time>
      </trkpt>
      <trkpt lat="49.09844" lon="0.74581">
        <ele>80.41</ele>
        <time>2020-09-17T11:53:56Z</time>
      </trkpt>
      <trkpt lat="49.09872" lon="0.74605">
        <ele>79.93</ele>
        <time>2020-09-17T11:54:06Z</time>
      </trkpt>
      <trkpt lat="49.0988" lon="0.74603">
        <ele>79.93</ele>
        <time>2020-09-17T11:54:09Z</time>
      </trkpt>
      <trkpt lat="49.09881" lon="0.74601">
        <ele>79.93</ele>
        <time>2020-09-17T11:54:10Z</time>
      </trkpt>
      <trkpt lat="49.09883" lon="0.74599">
        <ele>79.93</ele>
        <time>2020-09-17T11:54:11Z</time>
      </trkpt>
      <trkpt lat="49.09907" lon="0.74556">
        <ele>79.45</ele>
        <time>2020-09-17T11:54:22Z</time>
      </trkpt>
      <trkpt lat="49.09956" lon="0.74492">
        <ele>79.45</ele>
        <time>2020-09-17T11:54:37Z</time>
      </trkpt>
      <trkpt lat="49.09973" lon="0.74474">
        <ele>79.45</ele>
        <time>2020-09-17T11:54:43Z</time>
      </trkpt>
      <trkpt lat="49.09975" lon="0.74474">
        <ele>79.45</ele>
        <time>2020-09-17T11:54:44Z</time>
      </trkpt>
      <trkpt lat="49.09978" lon="0.74475">
        <ele>79.45</ele>
        <time>2020-09-17T11:54:45Z</time>
      </trkpt>
      <trkpt lat="49.0998" lon="0.74477">
        <ele>79.45</ele>
        <time>2020-09-17T11:54:46Z</time>
      </trkpt>
      <trkpt lat="49.09982" lon="0.74478">
        <ele>79.45</ele>
        <time>2020-09-17T11:54:47Z</time>
      </trkpt>
      <trkpt lat="49.09983" lon="0.74479">
        <ele>79.45</ele>
        <time>2020-09-17T11:54:48Z</time>
      </trkpt>
      <trkpt lat="49.09987" lon="0.74481">
        <ele>79.45</ele>
        <time>2020-09-17T11:54:55Z</time>
      </trkpt>
      <trkpt lat="49.09987" lon="0.74483">
        <ele>79.45</ele>
        <time>2020-09-17T11:54:56Z</time>
      </trkpt>
      <trkpt lat="49.10011" lon="0.74539">
        <ele>79.45</ele>
        <time>2020-09-17T11:55:09Z</time>
      </trkpt>
      <trkpt lat="49.10029" lon="0.746">
        <ele>79.45</ele>
        <time>2020-09-17T11:55:19Z</time>
      </trkpt>
      <trkpt lat="49.10032" lon="0.74605">
        <ele>79.45</ele>
        <time>2020-09-17T11:55:20Z</time>
      </trkpt>
      <trkpt lat="49.10035" lon="0.74609">
        <ele>79.45</ele>
        <time>2020-09-17T11:55:21Z</time>
      </trkpt>
      <trkpt lat="49.1004" lon="0.74611">
        <ele>79.45</ele>
        <time>2020-09-17T11:55:22Z</time>
      </trkpt>
      <trkpt lat="49.10044" lon="0.74612">
        <ele>79.45</ele>
        <time>2020-09-17T11:55:23Z</time>
      </trkpt>
      <trkpt lat="49.10049" lon="0.74615">
        <ele>79.45</ele>
        <time>2020-09-17T11:55:24Z</time>
      </trkpt>
      <trkpt lat="49.10053" lon="0.74617">
        <ele>79.45</ele>
        <time>2020-09-17T11:55:25Z</time>
      </trkpt>
      <trkpt lat="49.10062" lon="0.74622">
        <ele>79.45</ele>
        <time>2020-09-17T11:55:27Z</time>
      </trkpt>
      <trkpt lat="49.10067" lon="0.74624">
        <ele>79.45</ele>
        <time>2020-09-17T11:55:28Z</time>
      </trkpt>
      <trkpt lat="49.10071" lon="0.74626">
        <ele>79.45</ele>
        <time>2020-09-17T11:55:29Z</time>
      </trkpt>
      <trkpt lat="49.10075" lon="0.74629">
        <ele>79.45</ele>
        <time>2020-09-17T11:55:30Z</time>
      </trkpt>
      <trkpt lat="49.10079" lon="0.74633">
        <ele>79.45</ele>
        <time>2020-09-17T11:55:31Z</time>
      </trkpt>
      <trkpt lat="49.10082" lon="0.74637">
        <ele>79.45</ele>
        <time>2020-09-17T11:55:32Z</time>
      </trkpt>
      <trkpt lat="49.10106" lon="0.74648">
        <ele>79.45</ele>
        <time>2020-09-17T11:55:42Z</time>
      </trkpt>
      <trkpt lat="49.1012" lon="0.74647">
        <ele>78.97</ele>
        <time>2020-09-17T11:55:50Z</time>
      </trkpt>
      <trkpt lat="49.10123" lon="0.74646">
        <ele>78.97</ele>
        <time>2020-09-17T11:55:51Z</time>
      </trkpt>
      <trkpt lat="49.10155" lon="0.74638">
        <ele>78.97</ele>
        <time>2020-09-17T11:56:01Z</time>
      </trkpt>
      <trkpt lat="49.1019" lon="0.7464">
        <ele>78.97</ele>
        <time>2020-09-17T11:56:09Z</time>
      </trkpt>
      <trkpt lat="49.10229" lon="0.74652">
        <ele>78.97</ele>
        <time>2020-09-17T11:56:17Z</time>
      </trkpt>
      <trkpt lat="49.10269" lon="0.74688">
        <ele>78.97</ele>
        <time>2020-09-17T11:56:29Z</time>
      </trkpt>
      <trkpt lat="49.10291" lon="0.74743">
        <ele>78.97</ele>
        <time>2020-09-17T11:56:41Z</time>
      </trkpt>
      <trkpt lat="49.10313" lon="0.74768">
        <ele>78.97</ele>
        <time>2020-09-17T11:56:51Z</time>
      </trkpt>
      <trkpt lat="49.10315" lon="0.74769">
        <ele>78.97</ele>
        <time>2020-09-17T11:56:52Z</time>
      </trkpt>
      <trkpt lat="49.10317" lon="0.74772">
        <ele>78.97</ele>
        <time>2020-09-17T11:56:53Z</time>
      </trkpt>
      <trkpt lat="49.10318" lon="0.74775">
        <ele>78.97</ele>
        <time>2020-09-17T11:56:54Z</time>
      </trkpt>
      <trkpt lat="49.10322" lon="0.74793">
        <ele>78.97</ele>
        <time>2020-09-17T11:57:00Z</time>
      </trkpt>
      <trkpt lat="49.10326" lon="0.748">
        <ele>79.93</ele>
        <time>2020-09-17T11:57:12Z</time>
      </trkpt>
      <trkpt lat="49.10332" lon="0.74805">
        <ele>80.41</ele>
        <time>2020-09-17T11:57:24Z</time>
      </trkpt>
      <trkpt lat="49.10346" lon="0.74821">
        <ele>78.97</ele>
        <time>2020-09-17T11:57:33Z</time>
      </trkpt>
      <trkpt lat="49.10366" lon="0.74855">
        <ele>78.97</ele>
        <time>2020-09-17T11:57:45Z</time>
      </trkpt>
      <trkpt lat="49.10403" lon="0.74893">
        <ele>78.97</ele>
        <time>2020-09-17T11:57:58Z</time>
      </trkpt>
      <trkpt lat="49.10421" lon="0.7492">
        <ele>78.97</ele>
        <time>2020-09-17T11:58:10Z</time>
      </trkpt>
      <trkpt lat="49.1043" lon="0.7494">
        <ele>78.97</ele>
        <time>2020-09-17T11:58:25Z</time>
      </trkpt>
      <trkpt lat="49.10431" lon="0.74942">
        <ele>78.97</ele>
        <time>2020-09-17T11:58:42Z</time>
      </trkpt>
      <trkpt lat="49.10432" lon="0.74951">
        <ele>78.97</ele>
        <time>2020-09-17T11:58:54Z</time>
      </trkpt>
      <trkpt lat="49.10433" lon="0.74953">
        <ele>78.97</ele>
        <time>2020-09-17T11:58:55Z</time>
      </trkpt>
      <trkpt lat="49.10434" lon="0.74957">
        <ele>80.41</ele>
        <time>2020-09-17T11:58:57Z</time>
      </trkpt>
      <trkpt lat="49.10447" lon="0.7499">
        <ele>81.85</ele>
        <time>2020-09-17T11:59:11Z</time>
      </trkpt>
      <trkpt lat="49.10463" lon="0.75035">
        <ele>85.21</ele>
        <time>2020-09-17T11:59:26Z</time>
      </trkpt>
      <trkpt lat="49.1048" lon="0.75069">
        <ele>88.58</ele>
        <time>2020-09-17T11:59:38Z</time>
      </trkpt>
      <trkpt lat="49.1049" lon="0.75102">
        <ele>91.46</ele>
        <time>2020-09-17T11:59:51Z</time>
      </trkpt>
      <trkpt lat="49.10496" lon="0.75124">
        <ele>93.87</ele>
        <time>2020-09-17T12:00:06Z</time>
      </trkpt>
      <trkpt lat="49.10499" lon="0.75129">
        <ele>95.31</ele>
        <time>2020-09-17T12:00:26Z</time>
      </trkpt>
      <trkpt lat="49.10499" lon="0.75133">
        <ele>95.31</ele>
        <time>2020-09-17T12:00:28Z</time>
      </trkpt>
      <trkpt lat="49.105" lon="0.75134">
        <ele>95.79</ele>
        <time>2020-09-17T12:00:29Z</time>
      </trkpt>
      <trkpt lat="49.10501" lon="0.75136">
        <ele>95.79</ele>
        <time>2020-09-17T12:00:30Z</time>
      </trkpt>
      <trkpt lat="49.10502" lon="0.75138">
        <ele>95.79</ele>
        <time>2020-09-17T12:00:31Z</time>
      </trkpt>
      <trkpt lat="49.10503" lon="0.7514">
        <ele>96.27</ele>
        <time>2020-09-17T12:00:32Z</time>
      </trkpt>
      <trkpt lat="49.10504" lon="0.75142">
        <ele>96.27</ele>
        <time>2020-09-17T12:00:33Z</time>
      </trkpt>
      <trkpt lat="49.10505" lon="0.75144">
        <ele>96.75</ele>
        <time>2020-09-17T12:00:34Z</time>
      </trkpt>
      <trkpt lat="49.10506" lon="0.75146">
        <ele>96.75</ele>
        <time>2020-09-17T12:00:35Z</time>
      </trkpt>
      <trkpt lat="49.10518" lon="0.75167">
        <ele>99.15</ele>
        <time>2020-09-17T12:00:50Z</time>
      </trkpt>
      <trkpt lat="49.10518" lon="0.75168">
        <ele>99.15</ele>
        <time>2020-09-17T12:00:51Z</time>
      </trkpt>
      <trkpt lat="49.10518" lon="0.7517">
        <ele>99.63</ele>
        <time>2020-09-17T12:00:52Z</time>
      </trkpt>
      <trkpt lat="49.1052" lon="0.75189">
        <ele>102.52</ele>
        <time>2020-09-17T12:01:06Z</time>
      </trkpt>
      <trkpt lat="49.10521" lon="0.75198">
        <ele>103</ele>
        <time>2020-09-17T12:01:28Z</time>
      </trkpt>
      <trkpt lat="49.10519" lon="0.75209">
        <ele>104.92</ele>
        <time>2020-09-17T12:01:41Z</time>
      </trkpt>
      <trkpt lat="49.10513" lon="0.75217">
        <ele>105.88</ele>
        <time>2020-09-17T12:01:58Z</time>
      </trkpt>
      <trkpt lat="49.10502" lon="0.75225">
        <ele>108.29</ele>
        <time>2020-09-17T12:02:10Z</time>
      </trkpt>
      <trkpt lat="49.10486" lon="0.75234">
        <ele>110.69</ele>
        <time>2020-09-17T12:02:23Z</time>
      </trkpt>
      <trkpt lat="49.10472" lon="0.75237">
        <ele>113.09</ele>
        <time>2020-09-17T12:02:37Z</time>
      </trkpt>
      <trkpt lat="49.10453" lon="0.75246">
        <ele>115.5</ele>
        <time>2020-09-17T12:02:51Z</time>
      </trkpt>
      <trkpt lat="49.10449" lon="0.75249">
        <ele>115.98</ele>
        <time>2020-09-17T12:03:15Z</time>
      </trkpt>
      <trkpt lat="49.10444" lon="0.75255">
        <ele>116.94</ele>
        <time>2020-09-17T12:03:26Z</time>
      </trkpt>
      <trkpt lat="49.10444" lon="0.75257">
        <ele>116.94</ele>
        <time>2020-09-17T12:03:27Z</time>
      </trkpt>
      <trkpt lat="49.10445" lon="0.75264">
        <ele>117.9</ele>
        <time>2020-09-17T12:03:31Z</time>
      </trkpt>
      <trkpt lat="49.10445" lon="0.75265">
        <ele>117.9</ele>
        <time>2020-09-17T12:03:32Z</time>
      </trkpt>
      <trkpt lat="49.10456" lon="0.75269">
        <ele>120.78</ele>
        <time>2020-09-17T12:03:43Z</time>
      </trkpt>
      <trkpt lat="49.10457" lon="0.7527">
        <ele>120.78</ele>
        <time>2020-09-17T12:03:44Z</time>
      </trkpt>
      <trkpt lat="49.10458" lon="0.7527">
        <ele>120.78</ele>
        <time>2020-09-17T12:03:45Z</time>
      </trkpt>
      <trkpt lat="49.10459" lon="0.7527">
        <ele>121.26</ele>
        <time>2020-09-17T12:03:46Z</time>
      </trkpt>
      <trkpt lat="49.10461" lon="0.75271">
        <ele>121.26</ele>
        <time>2020-09-17T12:03:47Z</time>
      </trkpt>
      <trkpt lat="49.10462" lon="0.75271">
        <ele>121.26</ele>
        <time>2020-09-17T12:03:48Z</time>
      </trkpt>
      <trkpt lat="49.10472" lon="0.75279">
        <ele>123.67</ele>
        <time>2020-09-17T12:04:03Z</time>
      </trkpt>
      <trkpt lat="49.10483" lon="0.75288">
        <ele>125.59</ele>
        <time>2020-09-17T12:04:27Z</time>
      </trkpt>
      <trkpt lat="49.10486" lon="0.75291">
        <ele>126.55</ele>
        <time>2020-09-17T12:04:31Z</time>
      </trkpt>
      <trkpt lat="49.10501" lon="0.75305">
        <ele>129.43</ele>
        <time>2020-09-17T12:04:45Z</time>
      </trkpt>
      <trkpt lat="49.10514" lon="0.75315">
        <ele>131.84</ele>
        <time>2020-09-17T12:04:58Z</time>
      </trkpt>
      <trkpt lat="49.10521" lon="0.75317">
        <ele>131.84</ele>
        <time>2020-09-17T12:05:19Z</time>
      </trkpt>
      <trkpt lat="49.10533" lon="0.75326">
        <ele>134.24</ele>
        <time>2020-09-17T12:05:34Z</time>
      </trkpt>
      <trkpt lat="49.10546" lon="0.75333">
        <ele>137.13</ele>
        <time>2020-09-17T12:05:48Z</time>
      </trkpt>
      <trkpt lat="49.10554" lon="0.75341">
        <ele>138.09</ele>
        <time>2020-09-17T12:06:06Z</time>
      </trkpt>
      <trkpt lat="49.10562" lon="0.75349">
        <ele>138.57</ele>
        <time>2020-09-17T12:06:28Z</time>
      </trkpt>
      <trkpt lat="49.10571" lon="0.75362">
        <ele>140.97</ele>
        <time>2020-09-17T12:06:40Z</time>
      </trkpt>
      <trkpt lat="49.10586" lon="0.75383">
        <ele>143.37</ele>
        <time>2020-09-17T12:06:56Z</time>
      </trkpt>
      <trkpt lat="49.10602" lon="0.75401">
        <ele>145.78</ele>
        <time>2020-09-17T12:07:12Z</time>
      </trkpt>
      <trkpt lat="49.10604" lon="0.75403">
        <ele>145.78</ele>
        <time>2020-09-17T12:07:28Z</time>
      </trkpt>
      <trkpt lat="49.10606" lon="0.75404">
        <ele>145.78</ele>
        <time>2020-09-17T12:07:29Z</time>
      </trkpt>
      <trkpt lat="49.10607" lon="0.75406">
        <ele>145.78</ele>
        <time>2020-09-17T12:07:30Z</time>
      </trkpt>
      <trkpt lat="49.10609" lon="0.75407">
        <ele>145.78</ele>
        <time>2020-09-17T12:07:31Z</time>
      </trkpt>
      <trkpt lat="49.10611" lon="0.75409">
        <ele>146.26</ele>
        <time>2020-09-17T12:07:32Z</time>
      </trkpt>
      <trkpt lat="49.10612" lon="0.7541">
        <ele>146.26</ele>
        <time>2020-09-17T12:07:33Z</time>
      </trkpt>
      <trkpt lat="49.10613" lon="0.75412">
        <ele>146.26</ele>
        <time>2020-09-17T12:07:34Z</time>
      </trkpt>
      <trkpt lat="49.10615" lon="0.75414">
        <ele>146.26</ele>
        <time>2020-09-17T12:07:35Z</time>
      </trkpt>
      <trkpt lat="49.10616" lon="0.75415">
        <ele>147.22</ele>
        <time>2020-09-17T12:07:36Z</time>
      </trkpt>
      <trkpt lat="49.10618" lon="0.75416">
        <ele>147.22</ele>
        <time>2020-09-17T12:07:37Z</time>
      </trkpt>
      <trkpt lat="49.10653" lon="0.75457">
        <ele>148.66</ele>
        <time>2020-09-17T12:07:56Z</time>
      </trkpt>
      <trkpt lat="49.10691" lon="0.75522">
        <ele>149.62</ele>
        <time>2020-09-17T12:08:13Z</time>
      </trkpt>
      <trkpt lat="49.10709" lon="0.75547">
        <ele>147.7</ele>
        <time>2020-09-17T12:08:20Z</time>
      </trkpt>
      <trkpt lat="49.10756" lon="0.75615">
        <ele>145.78</ele>
        <time>2020-09-17T12:08:37Z</time>
      </trkpt>
      <trkpt lat="49.1076" lon="0.75618">
        <ele>145.78</ele>
        <time>2020-09-17T12:08:38Z</time>
      </trkpt>
      <trkpt lat="49.10764" lon="0.75619">
        <ele>145.78</ele>
        <time>2020-09-17T12:08:39Z</time>
      </trkpt>
      <trkpt lat="49.10768" lon="0.75617">
        <ele>145.3</ele>
        <time>2020-09-17T12:08:40Z</time>
      </trkpt>
      <trkpt lat="49.10772" lon="0.75616">
        <ele>145.3</ele>
        <time>2020-09-17T12:08:41Z</time>
      </trkpt>
      <trkpt lat="49.10775" lon="0.75613">
        <ele>145.3</ele>
        <time>2020-09-17T12:08:42Z</time>
      </trkpt>
      <trkpt lat="49.10834" lon="0.75574">
        <ele>144.82</ele>
        <time>2020-09-17T12:08:58Z</time>
      </trkpt>
      <trkpt lat="49.10881" lon="0.75541">
        <ele>144.34</ele>
        <time>2020-09-17T12:09:13Z</time>
      </trkpt>
      <trkpt lat="49.1093" lon="0.75506">
        <ele>143.37</ele>
        <time>2020-09-17T12:09:28Z</time>
      </trkpt>
      <trkpt lat="49.10999" lon="0.7546">
        <ele>141.45</ele>
        <time>2020-09-17T12:09:47Z</time>
      </trkpt>
      <trkpt lat="49.11069" lon="0.75425">
        <ele>144.34</ele>
        <time>2020-09-17T12:10:05Z</time>
      </trkpt>
      <trkpt lat="49.11099" lon="0.7541">
        <ele>144.82</ele>
        <time>2020-09-17T12:10:13Z</time>
      </trkpt>
      <trkpt lat="49.11103" lon="0.75408">
        <ele>145.3</ele>
        <time>2020-09-17T12:10:14Z</time>
      </trkpt>
      <trkpt lat="49.11107" lon="0.75406">
        <ele>145.3</ele>
        <time>2020-09-17T12:10:15Z</time>
      </trkpt>
      <trkpt lat="49.11111" lon="0.75405">
        <ele>145.3</ele>
        <time>2020-09-17T12:10:16Z</time>
      </trkpt>
      <trkpt lat="49.11114" lon="0.75404">
        <ele>145.3</ele>
        <time>2020-09-17T12:10:17Z</time>
      </trkpt>
      <trkpt lat="49.11178" lon="0.75381">
        <ele>146.74</ele>
        <time>2020-09-17T12:10:33Z</time>
      </trkpt>
      <trkpt lat="49.11227" lon="0.75368">
        <ele>146.74</ele>
        <time>2020-09-17T12:10:47Z</time>
      </trkpt>
      <trkpt lat="49.11252" lon="0.7537">
        <ele>145.3</ele>
        <time>2020-09-17T12:10:54Z</time>
      </trkpt>
      <trkpt lat="49.11294" lon="0.75369">
        <ele>144.82</ele>
        <time>2020-09-17T12:11:06Z</time>
      </trkpt>
      <trkpt lat="49.11345" lon="0.75376">
        <ele>142.41</ele>
        <time>2020-09-17T12:11:19Z</time>
      </trkpt>
      <trkpt lat="49.11391" lon="0.75384">
        <ele>140.97</ele>
        <time>2020-09-17T12:11:29Z</time>
      </trkpt>
      <trkpt lat="49.11396" lon="0.75387">
        <ele>140.97</ele>
        <time>2020-09-17T12:11:30Z</time>
      </trkpt>
      <trkpt lat="49.114" lon="0.75388">
        <ele>140.97</ele>
        <time>2020-09-17T12:11:31Z</time>
      </trkpt>
      <trkpt lat="49.11404" lon="0.75389">
        <ele>140.97</ele>
        <time>2020-09-17T12:11:32Z</time>
      </trkpt>
      <trkpt lat="49.11409" lon="0.7539">
        <ele>140.49</ele>
        <time>2020-09-17T12:11:33Z</time>
      </trkpt>
      <trkpt lat="49.11414" lon="0.7539">
        <ele>140.01</ele>
        <time>2020-09-17T12:11:34Z</time>
      </trkpt>
      <trkpt lat="49.11419" lon="0.75391">
        <ele>140.49</ele>
        <time>2020-09-17T12:11:35Z</time>
      </trkpt>
      <trkpt lat="49.11424" lon="0.75391">
        <ele>140.49</ele>
        <time>2020-09-17T12:11:36Z</time>
      </trkpt>
      <trkpt lat="49.11428" lon="0.75391">
        <ele>140.49</ele>
        <time>2020-09-17T12:11:37Z</time>
      </trkpt>
      <trkpt lat="49.11433" lon="0.75392">
        <ele>140.49</ele>
        <time>2020-09-17T12:11:38Z</time>
      </trkpt>
      <trkpt lat="49.11437" lon="0.75392">
        <ele>140.49</ele>
        <time>2020-09-17T12:11:39Z</time>
      </trkpt>
      <trkpt lat="49.11441" lon="0.75392">
        <ele>140.49</ele>
        <time>2020-09-17T12:11:40Z</time>
      </trkpt>
      <trkpt lat="49.11446" lon="0.75392">
        <ele>140.49</ele>
        <time>2020-09-17T12:11:41Z</time>
      </trkpt>
      <trkpt lat="49.11451" lon="0.75392">
        <ele>140.49</ele>
        <time>2020-09-17T12:11:42Z</time>
      </trkpt>
      <trkpt lat="49.11512" lon="0.7538">
        <ele>141.93</ele>
        <time>2020-09-17T12:11:55Z</time>
      </trkpt>
      <trkpt lat="49.11517" lon="0.75378">
        <ele>141.93</ele>
        <time>2020-09-17T12:11:56Z</time>
      </trkpt>
      <trkpt lat="49.11574" lon="0.75366">
        <ele>143.85</ele>
        <time>2020-09-17T12:12:08Z</time>
      </trkpt>
      <trkpt lat="49.11625" lon="0.7535">
        <ele>144.34</ele>
        <time>2020-09-17T12:12:21Z</time>
      </trkpt>
      <trkpt lat="49.11656" lon="0.75336">
        <ele>144.34</ele>
        <time>2020-09-17T12:12:33Z</time>
      </trkpt>
      <trkpt lat="49.1169" lon="0.75327">
        <ele>144.34</ele>
        <time>2020-09-17T12:12:44Z</time>
      </trkpt>
      <trkpt lat="49.11722" lon="0.75316">
        <ele>144.82</ele>
        <time>2020-09-17T12:12:54Z</time>
      </trkpt>
      <trkpt lat="49.11731" lon="0.75309">
        <ele>144.82</ele>
        <time>2020-09-17T12:12:57Z</time>
      </trkpt>
      <trkpt lat="49.11732" lon="0.75305">
        <ele>144.82</ele>
        <time>2020-09-17T12:12:58Z</time>
      </trkpt>
      <trkpt lat="49.11745" lon="0.75253">
        <ele>143.37</ele>
        <time>2020-09-17T12:13:09Z</time>
      </trkpt>
      <trkpt lat="49.11767" lon="0.75189">
        <ele>141.45</ele>
        <time>2020-09-17T12:13:21Z</time>
      </trkpt>
      <trkpt lat="49.11772" lon="0.75177">
        <ele>140.97</ele>
        <time>2020-09-17T12:13:23Z</time>
      </trkpt>
      <trkpt lat="49.11788" lon="0.75119">
        <ele>138.57</ele>
        <time>2020-09-17T12:13:34Z</time>
      </trkpt>
      <trkpt lat="49.11794" lon="0.75079">
        <ele>135.2</ele>
        <time>2020-09-17T12:13:44Z</time>
      </trkpt>
      <trkpt lat="49.11795" lon="0.75043">
        <ele>132.32</ele>
        <time>2020-09-17T12:13:52Z</time>
      </trkpt>
      <trkpt lat="49.11797" lon="0.75011">
        <ele>128.47</ele>
        <time>2020-09-17T12:13:59Z</time>
      </trkpt>
      <trkpt lat="49.11798" lon="0.75005">
        <ele>127.99</ele>
        <time>2020-09-17T12:14:01Z</time>
      </trkpt>
      <trkpt lat="49.11799" lon="0.75002">
        <ele>127.99</ele>
        <time>2020-09-17T12:14:02Z</time>
      </trkpt>
      <trkpt lat="49.11799" lon="0.74999">
        <ele>127.51</ele>
        <time>2020-09-17T12:14:03Z</time>
      </trkpt>
      <trkpt lat="49.11799" lon="0.74996">
        <ele>126.55</ele>
        <time>2020-09-17T12:14:04Z</time>
      </trkpt>
      <trkpt lat="49.118" lon="0.74992">
        <ele>126.55</ele>
        <time>2020-09-17T12:14:05Z</time>
      </trkpt>
      <trkpt lat="49.118" lon="0.74989">
        <ele>126.07</ele>
        <time>2020-09-17T12:14:06Z</time>
      </trkpt>
      <trkpt lat="49.11802" lon="0.74967">
        <ele>122.71</ele>
        <time>2020-09-17T12:14:12Z</time>
      </trkpt>
      <trkpt lat="49.11803" lon="0.74956">
        <ele>121.74</ele>
        <time>2020-09-17T12:14:16Z</time>
      </trkpt>
      <trkpt lat="49.11803" lon="0.74953">
        <ele>121.26</ele>
        <time>2020-09-17T12:14:17Z</time>
      </trkpt>
      <trkpt lat="49.11799" lon="0.74915">
        <ele>117.42</ele>
        <time>2020-09-17T12:14:27Z</time>
      </trkpt>
      <trkpt lat="49.11798" lon="0.74891">
        <ele>115.98</ele>
        <time>2020-09-17T12:14:32Z</time>
      </trkpt>
      <trkpt lat="49.11797" lon="0.74885">
        <ele>115.5</ele>
        <time>2020-09-17T12:14:33Z</time>
      </trkpt>
      <trkpt lat="49.11795" lon="0.74877">
        <ele>115.5</ele>
        <time>2020-09-17T12:14:34Z</time>
      </trkpt>
      <trkpt lat="49.11792" lon="0.7487">
        <ele>114.53</ele>
        <time>2020-09-17T12:14:35Z</time>
      </trkpt>
      <trkpt lat="49.11789" lon="0.74862">
        <ele>114.53</ele>
        <time>2020-09-17T12:14:36Z</time>
      </trkpt>
      <trkpt lat="49.11766" lon="0.74807">
        <ele>111.65</ele>
        <time>2020-09-17T12:14:42Z</time>
      </trkpt>
      <trkpt lat="49.11737" lon="0.74735">
        <ele>108.29</ele>
        <time>2020-09-17T12:14:49Z</time>
      </trkpt>
      <trkpt lat="49.11718" lon="0.74677">
        <ele>106.84</ele>
        <time>2020-09-17T12:14:54Z</time>
      </trkpt>
      <trkpt lat="49.11715" lon="0.74664">
        <ele>106.36</ele>
        <time>2020-09-17T12:14:55Z</time>
      </trkpt>
      <trkpt lat="49.11714" lon="0.74651">
        <ele>106.36</ele>
        <time>2020-09-17T12:14:56Z</time>
      </trkpt>
      <trkpt lat="49.11713" lon="0.74638">
        <ele>105.88</ele>
        <time>2020-09-17T12:14:57Z</time>
      </trkpt>
      <trkpt lat="49.11713" lon="0.74625">
        <ele>105.88</ele>
        <time>2020-09-17T12:14:58Z</time>
      </trkpt>
      <trkpt lat="49.11715" lon="0.74613">
        <ele>105.4</ele>
        <time>2020-09-17T12:14:59Z</time>
      </trkpt>
      <trkpt lat="49.11718" lon="0.746">
        <ele>105.4</ele>
        <time>2020-09-17T12:15:00Z</time>
      </trkpt>
      <trkpt lat="49.11721" lon="0.74589">
        <ele>105.4</ele>
        <time>2020-09-17T12:15:01Z</time>
      </trkpt>
      <trkpt lat="49.11725" lon="0.74577">
        <ele>104.92</ele>
        <time>2020-09-17T12:15:02Z</time>
      </trkpt>
      <trkpt lat="49.11759" lon="0.74483">
        <ele>101.08</ele>
        <time>2020-09-17T12:15:10Z</time>
      </trkpt>
      <trkpt lat="49.11794" lon="0.74371">
        <ele>97.23</ele>
        <time>2020-09-17T12:15:19Z</time>
      </trkpt>
      <trkpt lat="49.11813" lon="0.7425">
        <ele>93.87</ele>
        <time>2020-09-17T12:15:28Z</time>
      </trkpt>
      <trkpt lat="49.11816" lon="0.74136">
        <ele>90.98</ele>
        <time>2020-09-17T12:15:37Z</time>
      </trkpt>
      <trkpt lat="49.1182" lon="0.74098">
        <ele>89.54</ele>
        <time>2020-09-17T12:15:40Z</time>
      </trkpt>
      <trkpt lat="49.11829" lon="0.74024">
        <ele>87.14</ele>
        <time>2020-09-17T12:15:46Z</time>
      </trkpt>
      <trkpt lat="49.11829" lon="0.74012">
        <ele>87.14</ele>
        <time>2020-09-17T12:15:47Z</time>
      </trkpt>
      <trkpt lat="49.11829" lon="0.74">
        <ele>86.66</ele>
        <time>2020-09-17T12:15:48Z</time>
      </trkpt>
      <trkpt lat="49.11828" lon="0.73988">
        <ele>86.18</ele>
        <time>2020-09-17T12:15:49Z</time>
      </trkpt>
      <trkpt lat="49.11827" lon="0.73976">
        <ele>86.18</ele>
        <time>2020-09-17T12:15:50Z</time>
      </trkpt>
      <trkpt lat="49.11824" lon="0.73964">
        <ele>85.21</ele>
        <time>2020-09-17T12:15:51Z</time>
      </trkpt>
      <trkpt lat="49.11821" lon="0.73953">
        <ele>84.73</ele>
        <time>2020-09-17T12:15:52Z</time>
      </trkpt>
      <trkpt lat="49.11818" lon="0.73942">
        <ele>84.25</ele>
        <time>2020-09-17T12:15:53Z</time>
      </trkpt>
      <trkpt lat="49.11813" lon="0.73931">
        <ele>84.25</ele>
        <time>2020-09-17T12:15:54Z</time>
      </trkpt>
      <trkpt lat="49.11793" lon="0.73879">
        <ele>81.85</ele>
        <time>2020-09-17T12:15:59Z</time>
      </trkpt>
      <trkpt lat="49.11792" lon="0.73871">
        <ele>81.85</ele>
        <time>2020-09-17T12:16:00Z</time>
      </trkpt>
      <trkpt lat="49.11792" lon="0.73864">
        <ele>81.85</ele>
        <time>2020-09-17T12:16:01Z</time>
      </trkpt>
      <trkpt lat="49.11792" lon="0.73858">
        <ele>81.37</ele>
        <time>2020-09-17T12:16:02Z</time>
      </trkpt>
      <trkpt lat="49.11794" lon="0.73853">
        <ele>81.37</ele>
        <time>2020-09-17T12:16:03Z</time>
      </trkpt>
      <trkpt lat="49.11796" lon="0.73848">
        <ele>81.37</ele>
        <time>2020-09-17T12:16:04Z</time>
      </trkpt>
      <trkpt lat="49.11798" lon="0.73844">
        <ele>81.37</ele>
        <time>2020-09-17T12:16:05Z</time>
      </trkpt>
      <trkpt lat="49.11801" lon="0.73839">
        <ele>80.89</ele>
        <time>2020-09-17T12:16:06Z</time>
      </trkpt>
      <trkpt lat="49.11808" lon="0.7383">
        <ele>80.89</ele>
        <time>2020-09-17T12:16:08Z</time>
      </trkpt>
      <trkpt lat="49.11843" lon="0.738">
        <ele>79.45</ele>
        <time>2020-09-17T12:16:16Z</time>
      </trkpt>
      <trkpt lat="49.11884" lon="0.73783">
        <ele>78.97</ele>
        <time>2020-09-17T12:16:25Z</time>
      </trkpt>
      <trkpt lat="49.11888" lon="0.7378">
        <ele>78.97</ele>
        <time>2020-09-17T12:16:26Z</time>
      </trkpt>
      <trkpt lat="49.11899" lon="0.73778">
        <ele>78.48</ele>
        <time>2020-09-17T12:16:29Z</time>
      </trkpt>
      <trkpt lat="49.11902" lon="0.73781">
        <ele>78.48</ele>
        <time>2020-09-17T12:16:30Z</time>
      </trkpt>
      <trkpt lat="49.11903" lon="0.73783">
        <ele>78.48</ele>
        <time>2020-09-17T12:16:31Z</time>
      </trkpt>
      <trkpt lat="49.11903" lon="0.73786">
        <ele>78.48</ele>
        <time>2020-09-17T12:16:32Z</time>
      </trkpt>
      <trkpt lat="49.11903" lon="0.73789">
        <ele>78.48</ele>
        <time>2020-09-17T12:16:33Z</time>
      </trkpt>
      <trkpt lat="49.11905" lon="0.73806">
        <ele>79.93</ele>
        <time>2020-09-17T12:16:38Z</time>
      </trkpt>
      <trkpt lat="49.1191" lon="0.7386">
        <ele>82.81</ele>
        <time>2020-09-17T12:16:54Z</time>
      </trkpt>
      <trkpt lat="49.11917" lon="0.73901">
        <ele>84.73</ele>
        <time>2020-09-17T12:17:09Z</time>
      </trkpt>
      <trkpt lat="49.11921" lon="0.73938">
        <ele>87.62</ele>
        <time>2020-09-17T12:17:24Z</time>
      </trkpt>
      <trkpt lat="49.11922" lon="0.73955">
        <ele>88.1</ele>
        <time>2020-09-17T12:17:40Z</time>
      </trkpt>
      <trkpt lat="49.11921" lon="0.73976">
        <ele>89.54</ele>
        <time>2020-09-17T12:17:54Z</time>
      </trkpt>
      <trkpt lat="49.11916" lon="0.74012">
        <ele>91.94</ele>
        <time>2020-09-17T12:18:07Z</time>
      </trkpt>
      <trkpt lat="49.11916" lon="0.74028">
        <ele>93.39</ele>
        <time>2020-09-17T12:18:12Z</time>
      </trkpt>
      <trkpt lat="49.11916" lon="0.7403">
        <ele>93.39</ele>
        <time>2020-09-17T12:18:13Z</time>
      </trkpt>
      <trkpt lat="49.11919" lon="0.74041">
        <ele>94.35</ele>
        <time>2020-09-17T12:18:19Z</time>
      </trkpt>
      <trkpt lat="49.1192" lon="0.74043">
        <ele>94.83</ele>
        <time>2020-09-17T12:18:20Z</time>
      </trkpt>
      <trkpt lat="49.1193" lon="0.74063">
        <ele>97.71</ele>
        <time>2020-09-17T12:18:34Z</time>
      </trkpt>
      <trkpt lat="49.11945" lon="0.74079">
        <ele>100.11</ele>
        <time>2020-09-17T12:18:49Z</time>
      </trkpt>
      <trkpt lat="49.11964" lon="0.74093">
        <ele>102.52</ele>
        <time>2020-09-17T12:19:05Z</time>
      </trkpt>
      <trkpt lat="49.11981" lon="0.74105">
        <ele>105.4</ele>
        <time>2020-09-17T12:19:19Z</time>
      </trkpt>
      <trkpt lat="49.12" lon="0.74117">
        <ele>107.81</ele>
        <time>2020-09-17T12:19:33Z</time>
      </trkpt>
      <trkpt lat="49.1202" lon="0.74125">
        <ele>110.21</ele>
        <time>2020-09-17T12:19:47Z</time>
      </trkpt>
      <trkpt lat="49.12035" lon="0.74128">
        <ele>113.09</ele>
        <time>2020-09-17T12:20:00Z</time>
      </trkpt>
      <trkpt lat="49.12042" lon="0.74131">
        <ele>113.57</ele>
        <time>2020-09-17T12:20:06Z</time>
      </trkpt>
      <trkpt lat="49.12061" lon="0.74138">
        <ele>115.5</ele>
        <time>2020-09-17T12:20:19Z</time>
      </trkpt>
      <trkpt lat="49.12081" lon="0.74149">
        <ele>117.9</ele>
        <time>2020-09-17T12:20:33Z</time>
      </trkpt>
      <trkpt lat="49.12096" lon="0.74168">
        <ele>120.78</ele>
        <time>2020-09-17T12:20:49Z</time>
      </trkpt>
      <trkpt lat="49.12102" lon="0.74175">
        <ele>121.26</ele>
        <time>2020-09-17T12:21:12Z</time>
      </trkpt>
      <trkpt lat="49.12107" lon="0.74181">
        <ele>121.74</ele>
        <time>2020-09-17T12:21:24Z</time>
      </trkpt>
      <trkpt lat="49.12108" lon="0.74183">
        <ele>121.74</ele>
        <time>2020-09-17T12:21:25Z</time>
      </trkpt>
      <trkpt lat="49.12109" lon="0.74184">
        <ele>122.22</ele>
        <time>2020-09-17T12:21:26Z</time>
      </trkpt>
      <trkpt lat="49.12122" lon="0.74208">
        <ele>125.11</ele>
        <time>2020-09-17T12:21:42Z</time>
      </trkpt>
      <trkpt lat="49.12133" lon="0.74233">
        <ele>127.03</ele>
        <time>2020-09-17T12:21:56Z</time>
      </trkpt>
      <trkpt lat="49.12138" lon="0.74249">
        <ele>127.99</ele>
        <time>2020-09-17T12:22:05Z</time>
      </trkpt>
      <trkpt lat="49.12139" lon="0.74251">
        <ele>127.99</ele>
        <time>2020-09-17T12:22:06Z</time>
      </trkpt>
      <trkpt lat="49.12145" lon="0.74266">
        <ele>128.47</ele>
        <time>2020-09-17T12:22:23Z</time>
      </trkpt>
      <trkpt lat="49.12154" lon="0.74279">
        <ele>130.4</ele>
        <time>2020-09-17T12:22:39Z</time>
      </trkpt>
      <trkpt lat="49.12166" lon="0.74291">
        <ele>132.8</ele>
        <time>2020-09-17T12:22:51Z</time>
      </trkpt>
      <trkpt lat="49.12171" lon="0.74298">
        <ele>133.28</ele>
        <time>2020-09-17T12:22:55Z</time>
      </trkpt>
      <trkpt lat="49.12172" lon="0.74299">
        <ele>133.76</ele>
        <time>2020-09-17T12:22:56Z</time>
      </trkpt>
      <trkpt lat="49.12173" lon="0.743">
        <ele>133.76</ele>
        <time>2020-09-17T12:22:57Z</time>
      </trkpt>
      <trkpt lat="49.12175" lon="0.74302">
        <ele>133.76</ele>
        <time>2020-09-17T12:22:58Z</time>
      </trkpt>
      <trkpt lat="49.12176" lon="0.74303">
        <ele>133.76</ele>
        <time>2020-09-17T12:22:59Z</time>
      </trkpt>
      <trkpt lat="49.12177" lon="0.74305">
        <ele>134.24</ele>
        <time>2020-09-17T12:23:00Z</time>
      </trkpt>
      <trkpt lat="49.12178" lon="0.74306">
        <ele>134.24</ele>
        <time>2020-09-17T12:23:01Z</time>
      </trkpt>
      <trkpt lat="49.12195" lon="0.74329">
        <ele>136.64</ele>
        <time>2020-09-17T12:23:16Z</time>
      </trkpt>
      <trkpt lat="49.12207" lon="0.74341">
        <ele>138.57</ele>
        <time>2020-09-17T12:23:27Z</time>
      </trkpt>
      <trkpt lat="49.12208" lon="0.74341">
        <ele>138.57</ele>
        <time>2020-09-17T12:23:28Z</time>
      </trkpt>
      <trkpt lat="49.12229" lon="0.74345">
        <ele>141.93</ele>
        <time>2020-09-17T12:23:42Z</time>
      </trkpt>
      <trkpt lat="49.12241" lon="0.74348">
        <ele>142.41</ele>
        <time>2020-09-17T12:23:52Z</time>
      </trkpt>
      <trkpt lat="49.12247" lon="0.74347">
        <ele>142.89</ele>
        <time>2020-09-17T12:23:58Z</time>
      </trkpt>
      <trkpt lat="49.12248" lon="0.74346">
        <ele>142.89</ele>
        <time>2020-09-17T12:23:59Z</time>
      </trkpt>
      <trkpt lat="49.1225" lon="0.74345">
        <ele>142.89</ele>
        <time>2020-09-17T12:24:00Z</time>
      </trkpt>
      <trkpt lat="49.12251" lon="0.74343">
        <ele>142.89</ele>
        <time>2020-09-17T12:24:01Z</time>
      </trkpt>
      <trkpt lat="49.12252" lon="0.7434">
        <ele>142.89</ele>
        <time>2020-09-17T12:24:02Z</time>
      </trkpt>
      <trkpt lat="49.12252" lon="0.74334">
        <ele>142.89</ele>
        <time>2020-09-17T12:24:04Z</time>
      </trkpt>
      <trkpt lat="49.1225" lon="0.74328">
        <ele>141.45</ele>
        <time>2020-09-17T12:24:05Z</time>
      </trkpt>
      <trkpt lat="49.12244" lon="0.74301">
        <ele>138.57</ele>
        <time>2020-09-17T12:24:09Z</time>
      </trkpt>
      <trkpt lat="49.12238" lon="0.74269">
        <ele>135.2</ele>
        <time>2020-09-17T12:24:12Z</time>
      </trkpt>
      <trkpt lat="49.12233" lon="0.74241">
        <ele>132.32</ele>
        <time>2020-09-17T12:24:15Z</time>
      </trkpt>
      <trkpt lat="49.12227" lon="0.74208">
        <ele>128.47</ele>
        <time>2020-09-17T12:24:18Z</time>
      </trkpt>
      <trkpt lat="49.12219" lon="0.74167">
        <ele>124.63</ele>
        <time>2020-09-17T12:24:22Z</time>
      </trkpt>
      <trkpt lat="49.12211" lon="0.74139">
        <ele>121.26</ele>
        <time>2020-09-17T12:24:25Z</time>
      </trkpt>
      <trkpt lat="49.12202" lon="0.74115">
        <ele>117.9</ele>
        <time>2020-09-17T12:24:28Z</time>
      </trkpt>
      <trkpt lat="49.12199" lon="0.74107">
        <ele>116.94</ele>
        <time>2020-09-17T12:24:29Z</time>
      </trkpt>
      <trkpt lat="49.12197" lon="0.74098">
        <ele>115.98</ele>
        <time>2020-09-17T12:24:30Z</time>
      </trkpt>
      <trkpt lat="49.12197" lon="0.74088">
        <ele>115.01</ele>
        <time>2020-09-17T12:24:31Z</time>
      </trkpt>
      <trkpt lat="49.12198" lon="0.74078">
        <ele>113.57</ele>
        <time>2020-09-17T12:24:32Z</time>
      </trkpt>
      <trkpt lat="49.12199" lon="0.7407">
        <ele>112.61</ele>
        <time>2020-09-17T12:24:33Z</time>
      </trkpt>
      <trkpt lat="49.12202" lon="0.74063">
        <ele>112.13</ele>
        <time>2020-09-17T12:24:34Z</time>
      </trkpt>
      <trkpt lat="49.12206" lon="0.74057">
        <ele>111.65</ele>
        <time>2020-09-17T12:24:35Z</time>
      </trkpt>
      <trkpt lat="49.1221" lon="0.74052">
        <ele>110.21</ele>
        <time>2020-09-17T12:24:36Z</time>
      </trkpt>
      <trkpt lat="49.12217" lon="0.74048">
        <ele>109.25</ele>
        <time>2020-09-17T12:24:37Z</time>
      </trkpt>
      <trkpt lat="49.12225" lon="0.74045">
        <ele>107.81</ele>
        <time>2020-09-17T12:24:38Z</time>
      </trkpt>
      <trkpt lat="49.12233" lon="0.74041">
        <ele>106.84</ele>
        <time>2020-09-17T12:24:39Z</time>
      </trkpt>
      <trkpt lat="49.12241" lon="0.74035">
        <ele>105.4</ele>
        <time>2020-09-17T12:24:40Z</time>
      </trkpt>
      <trkpt lat="49.12248" lon="0.74027">
        <ele>103.96</ele>
        <time>2020-09-17T12:24:41Z</time>
      </trkpt>
      <trkpt lat="49.12255" lon="0.74017">
        <ele>102.52</ele>
        <time>2020-09-17T12:24:42Z</time>
      </trkpt>
      <trkpt lat="49.12261" lon="0.74006">
        <ele>101.08</ele>
        <time>2020-09-17T12:24:43Z</time>
      </trkpt>
      <trkpt lat="49.12282" lon="0.73972">
        <ele>97.71</ele>
        <time>2020-09-17T12:24:46Z</time>
      </trkpt>
      <trkpt lat="49.12301" lon="0.73946">
        <ele>94.83</ele>
        <time>2020-09-17T12:24:49Z</time>
      </trkpt>
      <trkpt lat="49.12307" lon="0.73937">
        <ele>93.39</ele>
        <time>2020-09-17T12:24:50Z</time>
      </trkpt>
      <trkpt lat="49.12313" lon="0.73929">
        <ele>92.9</ele>
        <time>2020-09-17T12:24:51Z</time>
      </trkpt>
      <trkpt lat="49.12321" lon="0.73922">
        <ele>91.94</ele>
        <time>2020-09-17T12:24:52Z</time>
      </trkpt>
      <trkpt lat="49.12353" lon="0.739">
        <ele>88.58</ele>
        <time>2020-09-17T12:24:56Z</time>
      </trkpt>
      <trkpt lat="49.12368" lon="0.73886">
        <ele>87.14</ele>
        <time>2020-09-17T12:24:58Z</time>
      </trkpt>
      <trkpt lat="49.12375" lon="0.73877">
        <ele>86.66</ele>
        <time>2020-09-17T12:24:59Z</time>
      </trkpt>
      <trkpt lat="49.12382" lon="0.73867">
        <ele>86.18</ele>
        <time>2020-09-17T12:25:00Z</time>
      </trkpt>
      <trkpt lat="49.12387" lon="0.73854">
        <ele>85.21</ele>
        <time>2020-09-17T12:25:01Z</time>
      </trkpt>
      <trkpt lat="49.1239" lon="0.7384">
        <ele>85.21</ele>
        <time>2020-09-17T12:25:02Z</time>
      </trkpt>
      <trkpt lat="49.12391" lon="0.73827">
        <ele>84.25</ele>
        <time>2020-09-17T12:25:03Z</time>
      </trkpt>
      <trkpt lat="49.12392" lon="0.73813">
        <ele>83.77</ele>
        <time>2020-09-17T12:25:04Z</time>
      </trkpt>
      <trkpt lat="49.12392" lon="0.738">
        <ele>83.29</ele>
        <time>2020-09-17T12:25:05Z</time>
      </trkpt>
      <trkpt lat="49.12391" lon="0.73759">
        <ele>81.85</ele>
        <time>2020-09-17T12:25:08Z</time>
      </trkpt>
      <trkpt lat="49.12391" lon="0.73725">
        <ele>81.37</ele>
        <time>2020-09-17T12:25:13Z</time>
      </trkpt>
      <trkpt lat="49.12391" lon="0.73722">
        <ele>81.37</ele>
        <time>2020-09-17T12:25:15Z</time>
      </trkpt>
      <trkpt lat="49.12391" lon="0.7372">
        <ele>81.37</ele>
        <time>2020-09-17T12:25:16Z</time>
      </trkpt>
      <trkpt lat="49.12391" lon="0.73718">
        <ele>81.37</ele>
        <time>2020-09-17T12:25:17Z</time>
      </trkpt>
      <trkpt lat="49.12391" lon="0.73715">
        <ele>81.37</ele>
        <time>2020-09-17T12:25:18Z</time>
      </trkpt>
      <trkpt lat="49.12391" lon="0.73712">
        <ele>81.37</ele>
        <time>2020-09-17T12:25:19Z</time>
      </trkpt>
      <trkpt lat="49.12389" lon="0.73653">
        <ele>80.89</ele>
        <time>2020-09-17T12:25:31Z</time>
      </trkpt>
      <trkpt lat="49.12382" lon="0.73611">
        <ele>79.93</ele>
        <time>2020-09-17T12:25:42Z</time>
      </trkpt>
      <trkpt lat="49.12382" lon="0.73611">
        <ele>81.37</ele>
        <time>2020-09-17T12:25:59Z</time>
      </trkpt>
      <trkpt lat="49.12381" lon="0.73611">
        <ele>81.37</ele>
        <time>2020-09-17T12:26:03Z</time>
      </trkpt>
      <trkpt lat="49.12369" lon="0.73614">
        <ele>81.37</ele>
        <time>2020-09-17T12:26:11Z</time>
      </trkpt>
      <trkpt lat="49.12368" lon="0.73613">
        <ele>81.37</ele>
        <time>2020-09-17T12:26:12Z</time>
      </trkpt>
      <trkpt lat="49.12366" lon="0.73611">
        <ele>79.93</ele>
        <time>2020-09-17T12:26:16Z</time>
      </trkpt>
      <trkpt lat="49.12366" lon="0.7361">
        <ele>79.93</ele>
        <time>2020-09-17T12:26:20Z</time>
      </trkpt>
      <trkpt lat="49.12365" lon="0.73608">
        <ele>79.93</ele>
        <time>2020-09-17T12:26:21Z</time>
      </trkpt>
      <trkpt lat="49.12362" lon="0.73606">
        <ele>79.93</ele>
        <time>2020-09-17T12:26:22Z</time>
      </trkpt>
      <trkpt lat="49.12358" lon="0.73607">
        <ele>79.93</ele>
        <time>2020-09-17T12:26:24Z</time>
      </trkpt>
      <trkpt lat="49.12353" lon="0.73609">
        <ele>79.93</ele>
        <time>2020-09-17T12:26:25Z</time>
      </trkpt>
      <trkpt lat="49.1235" lon="0.73611">
        <ele>79.93</ele>
        <time>2020-09-17T12:26:26Z</time>
      </trkpt>
      <trkpt lat="49.12342" lon="0.73615">
        <ele>79.45</ele>
        <time>2020-09-17T12:26:28Z</time>
      </trkpt>
      <trkpt lat="49.12295" lon="0.73629">
        <ele>78.97</ele>
        <time>2020-09-17T12:26:38Z</time>
      </trkpt>
      <trkpt lat="49.1229" lon="0.7363">
        <ele>78.48</ele>
        <time>2020-09-17T12:26:39Z</time>
      </trkpt>
      <trkpt lat="49.12189" lon="0.73663">
        <ele>78.48</ele>
        <time>2020-09-17T12:26:59Z</time>
      </trkpt>
      <trkpt lat="49.12156" lon="0.73675">
        <ele>79.93</ele>
        <time>2020-09-17T12:27:05Z</time>
      </trkpt>
      <trkpt lat="49.12115" lon="0.73693">
        <ele>79.93</ele>
        <time>2020-09-17T12:27:13Z</time>
      </trkpt>
      <trkpt lat="49.12032" lon="0.7372">
        <ele>79.93</ele>
        <time>2020-09-17T12:27:29Z</time>
      </trkpt>
      <trkpt lat="49.11945" lon="0.73752">
        <ele>79.45</ele>
        <time>2020-09-17T12:27:46Z</time>
      </trkpt>
      <trkpt lat="49.11904" lon="0.73767">
        <ele>80.89</ele>
        <time>2020-09-17T12:27:54Z</time>
      </trkpt>
      <trkpt lat="49.11834" lon="0.73792">
        <ele>81.37</ele>
        <time>2020-09-17T12:28:09Z</time>
      </trkpt>
      <trkpt lat="49.1183" lon="0.73792">
        <ele>81.37</ele>
        <time>2020-09-17T12:28:10Z</time>
      </trkpt>
      <trkpt lat="49.11825" lon="0.73789">
        <ele>81.85</ele>
        <time>2020-09-17T12:28:11Z</time>
      </trkpt>
      <trkpt lat="49.11822" lon="0.73785">
        <ele>81.85</ele>
        <time>2020-09-17T12:28:12Z</time>
      </trkpt>
      <trkpt lat="49.11819" lon="0.73779">
        <ele>81.85</ele>
        <time>2020-09-17T12:28:13Z</time>
      </trkpt>
      <trkpt lat="49.11817" lon="0.73774">
        <ele>81.85</ele>
        <time>2020-09-17T12:28:14Z</time>
      </trkpt>
      <trkpt lat="49.11815" lon="0.73768">
        <ele>81.85</ele>
        <time>2020-09-17T12:28:15Z</time>
      </trkpt>
      <trkpt lat="49.11814" lon="0.73762">
        <ele>81.85</ele>
        <time>2020-09-17T12:28:16Z</time>
      </trkpt>
      <trkpt lat="49.11803" lon="0.73712">
        <ele>80.41</ele>
        <time>2020-09-17T12:28:23Z</time>
      </trkpt>
      <trkpt lat="49.11788" lon="0.73644">
        <ele>80.41</ele>
        <time>2020-09-17T12:28:32Z</time>
      </trkpt>
      <trkpt lat="49.11782" lon="0.73622">
        <ele>80.41</ele>
        <time>2020-09-17T12:28:35Z</time>
      </trkpt>
      <trkpt lat="49.11773" lon="0.73598">
        <ele>80.41</ele>
        <time>2020-09-17T12:28:38Z</time>
      </trkpt>
      <trkpt lat="49.11769" lon="0.73591">
        <ele>79.93</ele>
        <time>2020-09-17T12:28:39Z</time>
      </trkpt>
      <trkpt lat="49.11765" lon="0.73584">
        <ele>79.93</ele>
        <time>2020-09-17T12:28:40Z</time>
      </trkpt>
      <trkpt lat="49.1176" lon="0.73577">
        <ele>79.93</ele>
        <time>2020-09-17T12:28:41Z</time>
      </trkpt>
      <trkpt lat="49.11755" lon="0.73571">
        <ele>79.93</ele>
        <time>2020-09-17T12:28:42Z</time>
      </trkpt>
      <trkpt lat="49.1175" lon="0.73565">
        <ele>79.45</ele>
        <time>2020-09-17T12:28:43Z</time>
      </trkpt>
      <trkpt lat="49.11744" lon="0.7356">
        <ele>79.45</ele>
        <time>2020-09-17T12:28:44Z</time>
      </trkpt>
      <trkpt lat="49.11692" lon="0.73516">
        <ele>78.97</ele>
        <time>2020-09-17T12:28:53Z</time>
      </trkpt>
      <trkpt lat="49.11622" lon="0.73397">
        <ele>78.97</ele>
        <time>2020-09-17T12:29:09Z</time>
      </trkpt>
      <trkpt lat="49.11608" lon="0.73362">
        <ele>78.97</ele>
        <time>2020-09-17T12:29:13Z</time>
      </trkpt>
      <trkpt lat="49.11606" lon="0.73352">
        <ele>78.97</ele>
        <time>2020-09-17T12:29:14Z</time>
      </trkpt>
      <trkpt lat="49.11604" lon="0.73343">
        <ele>78.97</ele>
        <time>2020-09-17T12:29:15Z</time>
      </trkpt>
      <trkpt lat="49.11609" lon="0.73219">
        <ele>78.48</ele>
        <time>2020-09-17T12:29:27Z</time>
      </trkpt>
      <trkpt lat="49.11611" lon="0.7317">
        <ele>78.48</ele>
        <time>2020-09-17T12:29:32Z</time>
      </trkpt>
      <trkpt lat="49.11609" lon="0.7316">
        <ele>78.48</ele>
        <time>2020-09-17T12:29:33Z</time>
      </trkpt>
      <trkpt lat="49.11607" lon="0.73151">
        <ele>78.48</ele>
        <time>2020-09-17T12:29:34Z</time>
      </trkpt>
      <trkpt lat="49.11604" lon="0.73142">
        <ele>78.48</ele>
        <time>2020-09-17T12:29:35Z</time>
      </trkpt>
      <trkpt lat="49.116" lon="0.73133">
        <ele>78.48</ele>
        <time>2020-09-17T12:29:36Z</time>
      </trkpt>
      <trkpt lat="49.11596" lon="0.73126">
        <ele>78.48</ele>
        <time>2020-09-17T12:29:37Z</time>
      </trkpt>
      <trkpt lat="49.11591" lon="0.73119">
        <ele>78.48</ele>
        <time>2020-09-17T12:29:38Z</time>
      </trkpt>
      <trkpt lat="49.11586" lon="0.73112">
        <ele>78.48</ele>
        <time>2020-09-17T12:29:39Z</time>
      </trkpt>
      <trkpt lat="49.11582" lon="0.73106">
        <ele>78.48</ele>
        <time>2020-09-17T12:29:40Z</time>
      </trkpt>
      <trkpt lat="49.11516" lon="0.73025">
        <ele>78.48</ele>
        <time>2020-09-17T12:29:55Z</time>
      </trkpt>
      <trkpt lat="49.11456" lon="0.72945">
        <ele>79.93</ele>
        <time>2020-09-17T12:30:10Z</time>
      </trkpt>
      <trkpt lat="49.11443" lon="0.72928">
        <ele>80.41</ele>
        <time>2020-09-17T12:30:14Z</time>
      </trkpt>
      <trkpt lat="49.11439" lon="0.72924">
        <ele>80.89</ele>
        <time>2020-09-17T12:30:15Z</time>
      </trkpt>
      <trkpt lat="49.11373" lon="0.7287">
        <ele>81.37</ele>
        <time>2020-09-17T12:30:30Z</time>
      </trkpt>
      <trkpt lat="49.1126" lon="0.72785">
        <ele>80.89</ele>
        <time>2020-09-17T12:30:52Z</time>
      </trkpt>
      <trkpt lat="49.11178" lon="0.72689">
        <ele>81.85</ele>
        <time>2020-09-17T12:31:08Z</time>
      </trkpt>
      <trkpt lat="49.1108" lon="0.72539">
        <ele>82.33</ele>
        <time>2020-09-17T12:31:26Z</time>
      </trkpt>
      <trkpt lat="49.11011" lon="0.72436">
        <ele>83.29</ele>
        <time>2020-09-17T12:31:39Z</time>
      </trkpt>
      <trkpt lat="49.10949" lon="0.72343">
        <ele>83.29</ele>
        <time>2020-09-17T12:31:54Z</time>
      </trkpt>
      <trkpt lat="49.10937" lon="0.72321">
        <ele>83.77</ele>
        <time>2020-09-17T12:31:57Z</time>
      </trkpt>
      <trkpt lat="49.10935" lon="0.72312">
        <ele>83.77</ele>
        <time>2020-09-17T12:31:58Z</time>
      </trkpt>
      <trkpt lat="49.10934" lon="0.723">
        <ele>83.77</ele>
        <time>2020-09-17T12:31:59Z</time>
      </trkpt>
      <trkpt lat="49.10935" lon="0.72292">
        <ele>83.77</ele>
        <time>2020-09-17T12:32:00Z</time>
      </trkpt>
      <trkpt lat="49.10936" lon="0.7228">
        <ele>83.77</ele>
        <time>2020-09-17T12:32:01Z</time>
      </trkpt>
      <trkpt lat="49.10938" lon="0.72269">
        <ele>83.77</ele>
        <time>2020-09-17T12:32:02Z</time>
      </trkpt>
      <trkpt lat="49.10947" lon="0.72196">
        <ele>80.89</ele>
        <time>2020-09-17T12:32:08Z</time>
      </trkpt>
      <trkpt lat="49.1096" lon="0.72073">
        <ele>80.41</ele>
        <time>2020-09-17T12:32:18Z</time>
      </trkpt>
      <trkpt lat="49.10978" lon="0.71906">
        <ele>82.33</ele>
        <time>2020-09-17T12:32:32Z</time>
      </trkpt>
      <trkpt lat="49.10997" lon="0.71718">
        <ele>83.29</ele>
        <time>2020-09-17T12:32:48Z</time>
      </trkpt>
      <trkpt lat="49.11002" lon="0.71589">
        <ele>83.29</ele>
        <time>2020-09-17T12:33:04Z</time>
      </trkpt>
      <trkpt lat="49.10984" lon="0.7151">
        <ele>83.29</ele>
        <time>2020-09-17T12:33:18Z</time>
      </trkpt>
      <trkpt lat="49.10958" lon="0.71434">
        <ele>85.21</ele>
        <time>2020-09-17T12:33:35Z</time>
      </trkpt>
      <trkpt lat="49.10939" lon="0.71385">
        <ele>85.21</ele>
        <time>2020-09-17T12:33:44Z</time>
      </trkpt>
      <trkpt lat="49.10918" lon="0.71325">
        <ele>85.69</ele>
        <time>2020-09-17T12:33:56Z</time>
      </trkpt>
      <trkpt lat="49.10915" lon="0.71325">
        <ele>85.69</ele>
        <time>2020-09-17T12:33:57Z</time>
      </trkpt>
      <trkpt lat="49.10913" lon="0.71328">
        <ele>85.69</ele>
        <time>2020-09-17T12:33:58Z</time>
      </trkpt>
      <trkpt lat="49.10911" lon="0.71333">
        <ele>85.69</ele>
        <time>2020-09-17T12:33:59Z</time>
      </trkpt>
      <trkpt lat="49.10908" lon="0.71338">
        <ele>85.69</ele>
        <time>2020-09-17T12:34:00Z</time>
      </trkpt>
      <trkpt lat="49.10902" lon="0.7135">
        <ele>84.25</ele>
        <time>2020-09-17T12:34:02Z</time>
      </trkpt>
      <trkpt lat="49.10898" lon="0.71356">
        <ele>83.29</ele>
        <time>2020-09-17T12:34:03Z</time>
      </trkpt>
      <trkpt lat="49.10893" lon="0.71361">
        <ele>83.29</ele>
        <time>2020-09-17T12:34:04Z</time>
      </trkpt>
      <trkpt lat="49.10833" lon="0.71413">
        <ele>83.29</ele>
        <time>2020-09-17T12:34:19Z</time>
      </trkpt>
      <trkpt lat="49.10755" lon="0.71477">
        <ele>82.81</ele>
        <time>2020-09-17T12:34:38Z</time>
      </trkpt>
      <trkpt lat="49.10696" lon="0.71526">
        <ele>82.33</ele>
        <time>2020-09-17T12:34:54Z</time>
      </trkpt>
      <trkpt lat="49.10621" lon="0.71587">
        <ele>82.33</ele>
        <time>2020-09-17T12:35:12Z</time>
      </trkpt>
      <trkpt lat="49.10588" lon="0.71619">
        <ele>81.85</ele>
        <time>2020-09-17T12:35:20Z</time>
      </trkpt>
      <trkpt lat="49.10543" lon="0.71649">
        <ele>83.29</ele>
        <time>2020-09-17T12:35:33Z</time>
      </trkpt>
      <trkpt lat="49.10534" lon="0.71663">
        <ele>83.29</ele>
        <time>2020-09-17T12:35:38Z</time>
      </trkpt>
      <trkpt lat="49.10534" lon="0.71667">
        <ele>83.29</ele>
        <time>2020-09-17T12:35:39Z</time>
      </trkpt>
      <trkpt lat="49.10534" lon="0.71672">
        <ele>82.81</ele>
        <time>2020-09-17T12:35:40Z</time>
      </trkpt>
      <trkpt lat="49.10535" lon="0.71676">
        <ele>82.81</ele>
        <time>2020-09-17T12:35:41Z</time>
      </trkpt>
      <trkpt lat="49.10537" lon="0.7168">
        <ele>82.81</ele>
        <time>2020-09-17T12:35:42Z</time>
      </trkpt>
      <trkpt lat="49.10539" lon="0.71684">
        <ele>82.81</ele>
        <time>2020-09-17T12:35:43Z</time>
      </trkpt>
      <trkpt lat="49.1058" lon="0.71762">
        <ele>83.29</ele>
        <time>2020-09-17T12:36:01Z</time>
      </trkpt>
      <trkpt lat="49.10607" lon="0.71815">
        <ele>83.29</ele>
        <time>2020-09-17T12:36:16Z</time>
      </trkpt>
      <trkpt lat="49.10635" lon="0.71866">
        <ele>83.77</ele>
        <time>2020-09-17T12:36:33Z</time>
      </trkpt>
      <trkpt lat="49.10648" lon="0.71891">
        <ele>83.77</ele>
        <time>2020-09-17T12:36:43Z</time>
      </trkpt>
      <trkpt lat="49.10673" lon="0.7194">
        <ele>83.29</ele>
        <time>2020-09-17T12:36:54Z</time>
      </trkpt>
      <trkpt lat="49.1071" lon="0.72019">
        <ele>82.33</ele>
        <time>2020-09-17T12:37:08Z</time>
      </trkpt>
      <trkpt lat="49.10752" lon="0.72107">
        <ele>81.37</ele>
        <time>2020-09-17T12:37:24Z</time>
      </trkpt>
      <trkpt lat="49.10754" lon="0.72113">
        <ele>81.37</ele>
        <time>2020-09-17T12:37:25Z</time>
      </trkpt>
      <trkpt lat="49.10772" lon="0.72152">
        <ele>83.29</ele>
        <time>2020-09-17T12:37:33Z</time>
      </trkpt>
      <trkpt lat="49.10811" lon="0.72242">
        <ele>84.25</ele>
        <time>2020-09-17T12:37:52Z</time>
      </trkpt>
      <trkpt lat="49.10827" lon="0.72329">
        <ele>86.66</ele>
        <time>2020-09-17T12:38:09Z</time>
      </trkpt>
      <trkpt lat="49.10826" lon="0.72407">
        <ele>89.54</ele>
        <time>2020-09-17T12:38:26Z</time>
      </trkpt>
      <trkpt lat="49.10823" lon="0.72459">
        <ele>92.9</ele>
        <time>2020-09-17T12:38:39Z</time>
      </trkpt>
      <trkpt lat="49.10843" lon="0.72487">
        <ele>94.35</ele>
        <time>2020-09-17T12:38:51Z</time>
      </trkpt>
      <trkpt lat="49.10858" lon="0.72487">
        <ele>93.39</ele>
        <time>2020-09-17T12:38:55Z</time>
      </trkpt>
      <trkpt lat="49.10862" lon="0.72488">
        <ele>92.42</ele>
        <time>2020-09-17T12:38:56Z</time>
      </trkpt>
      <trkpt lat="49.10866" lon="0.72492">
        <ele>91.94</ele>
        <time>2020-09-17T12:38:57Z</time>
      </trkpt>
      <trkpt lat="49.1087" lon="0.72497">
        <ele>91.94</ele>
        <time>2020-09-17T12:38:58Z</time>
      </trkpt>
      <trkpt lat="49.10874" lon="0.72504">
        <ele>90.98</ele>
        <time>2020-09-17T12:38:59Z</time>
      </trkpt>
      <trkpt lat="49.10877" lon="0.72513">
        <ele>90.02</ele>
        <time>2020-09-17T12:39:00Z</time>
      </trkpt>
      <trkpt lat="49.10879" lon="0.72523">
        <ele>89.54</ele>
        <time>2020-09-17T12:39:01Z</time>
      </trkpt>
      <trkpt lat="49.10882" lon="0.72533">
        <ele>89.06</ele>
        <time>2020-09-17T12:39:02Z</time>
      </trkpt>
      <trkpt lat="49.10901" lon="0.72607">
        <ele>87.14</ele>
        <time>2020-09-17T12:39:10Z</time>
      </trkpt>
      <trkpt lat="49.10901" lon="0.72615">
        <ele>87.14</ele>
        <time>2020-09-17T12:39:11Z</time>
      </trkpt>
      <trkpt lat="49.10904" lon="0.72716">
        <ele>89.54</ele>
        <time>2020-09-17T12:39:26Z</time>
      </trkpt>
      <trkpt lat="49.10906" lon="0.72783">
        <ele>90.02</ele>
        <time>2020-09-17T12:39:36Z</time>
      </trkpt>
      <trkpt lat="49.10906" lon="0.72791">
        <ele>90.02</ele>
        <time>2020-09-17T12:39:37Z</time>
      </trkpt>
      <trkpt lat="49.10905" lon="0.72798">
        <ele>90.02</ele>
        <time>2020-09-17T12:39:38Z</time>
      </trkpt>
      <trkpt lat="49.10904" lon="0.72805">
        <ele>90.02</ele>
        <time>2020-09-17T12:39:39Z</time>
      </trkpt>
      <trkpt lat="49.10903" lon="0.72813">
        <ele>90.02</ele>
        <time>2020-09-17T12:39:40Z</time>
      </trkpt>
      <trkpt lat="49.10901" lon="0.7282">
        <ele>90.02</ele>
        <time>2020-09-17T12:39:41Z</time>
      </trkpt>
      <trkpt lat="49.10899" lon="0.72827">
        <ele>90.02</ele>
        <time>2020-09-17T12:39:42Z</time>
      </trkpt>
      <trkpt lat="49.10864" lon="0.72904">
        <ele>88.1</ele>
        <time>2020-09-17T12:39:53Z</time>
      </trkpt>
      <trkpt lat="49.10795" lon="0.73042">
        <ele>86.18</ele>
        <time>2020-09-17T12:40:13Z</time>
      </trkpt>
      <trkpt lat="49.10752" lon="0.73129">
        <ele>86.18</ele>
        <time>2020-09-17T12:40:28Z</time>
      </trkpt>
      <trkpt lat="49.10753" lon="0.73133">
        <ele>86.18</ele>
        <time>2020-09-17T12:40:29Z</time>
      </trkpt>
      <trkpt lat="49.10757" lon="0.73134">
        <ele>86.18</ele>
        <time>2020-09-17T12:40:30Z</time>
      </trkpt>
      <trkpt lat="49.1076" lon="0.73132">
        <ele>85.69</ele>
        <time>2020-09-17T12:40:31Z</time>
      </trkpt>
      <trkpt lat="49.10763" lon="0.73128">
        <ele>85.69</ele>
        <time>2020-09-17T12:40:32Z</time>
      </trkpt>
      <trkpt lat="49.10766" lon="0.73123">
        <ele>85.21</ele>
        <time>2020-09-17T12:40:33Z</time>
      </trkpt>
      <trkpt lat="49.10798" lon="0.73064">
        <ele>84.73</ele>
        <time>2020-09-17T12:40:46Z</time>
      </trkpt>
      <trkpt lat="49.10825" lon="0.73014">
        <ele>84.25</ele>
        <time>2020-09-17T12:41:00Z</time>
      </trkpt>
      <trkpt lat="49.10838" lon="0.7304">
        <ele>83.29</ele>
        <time>2020-09-17T12:41:08Z</time>
      </trkpt>
      <trkpt lat="49.10869" lon="0.73114">
        <ele>81.37</ele>
        <time>2020-09-17T12:41:23Z</time>
      </trkpt>
      <trkpt lat="49.10868" lon="0.73119">
        <ele>81.37</ele>
        <time>2020-09-17T12:41:25Z</time>
      </trkpt>
      <trkpt lat="49.10866" lon="0.73121">
        <ele>81.37</ele>
        <time>2020-09-17T12:41:26Z</time>
      </trkpt>
      <trkpt lat="49.10863" lon="0.73124">
        <ele>81.37</ele>
        <time>2020-09-17T12:41:27Z</time>
      </trkpt>
      <trkpt lat="49.1086" lon="0.73126">
        <ele>81.37</ele>
        <time>2020-09-17T12:41:28Z</time>
      </trkpt>
      <trkpt lat="49.10811" lon="0.73174">
        <ele>80.89</ele>
        <time>2020-09-17T12:41:44Z</time>
      </trkpt>
      <trkpt lat="49.10777" lon="0.73221">
        <ele>80.89</ele>
        <time>2020-09-17T12:41:57Z</time>
      </trkpt>
      <trkpt lat="49.10731" lon="0.73286">
        <ele>80.41</ele>
        <time>2020-09-17T12:42:12Z</time>
      </trkpt>
      <trkpt lat="49.10705" lon="0.73316">
        <ele>81.85</ele>
        <time>2020-09-17T12:42:21Z</time>
      </trkpt>
      <trkpt lat="49.10705" lon="0.7332">
        <ele>81.85</ele>
        <time>2020-09-17T12:42:22Z</time>
      </trkpt>
      <trkpt lat="49.10706" lon="0.73325">
        <ele>81.85</ele>
        <time>2020-09-17T12:42:23Z</time>
      </trkpt>
      <trkpt lat="49.10708" lon="0.73329">
        <ele>81.85</ele>
        <time>2020-09-17T12:42:24Z</time>
      </trkpt>
      <trkpt lat="49.10711" lon="0.73334">
        <ele>81.85</ele>
        <time>2020-09-17T12:42:25Z</time>
      </trkpt>
      <trkpt lat="49.10721" lon="0.73357">
        <ele>80.41</ele>
        <time>2020-09-17T12:42:29Z</time>
      </trkpt>
      <trkpt lat="49.10741" lon="0.73395">
        <ele>80.41</ele>
        <time>2020-09-17T12:42:36Z</time>
      </trkpt>
      <trkpt lat="49.10742" lon="0.734">
        <ele>80.41</ele>
        <time>2020-09-17T12:42:37Z</time>
      </trkpt>
      <trkpt lat="49.10743" lon="0.73405">
        <ele>80.41</ele>
        <time>2020-09-17T12:42:38Z</time>
      </trkpt>
      <trkpt lat="49.10743" lon="0.73411">
        <ele>80.41</ele>
        <time>2020-09-17T12:42:39Z</time>
      </trkpt>
      <trkpt lat="49.10743" lon="0.73416">
        <ele>80.41</ele>
        <time>2020-09-17T12:42:40Z</time>
      </trkpt>
      <trkpt lat="49.10745" lon="0.7342">
        <ele>80.41</ele>
        <time>2020-09-17T12:42:41Z</time>
      </trkpt>
      <trkpt lat="49.10748" lon="0.73423">
        <ele>80.41</ele>
        <time>2020-09-17T12:42:42Z</time>
      </trkpt>
      <trkpt lat="49.10753" lon="0.73418">
        <ele>80.41</ele>
        <time>2020-09-17T12:42:44Z</time>
      </trkpt>
      <trkpt lat="49.10752" lon="0.73413">
        <ele>80.41</ele>
        <time>2020-09-17T12:42:45Z</time>
      </trkpt>
      <trkpt lat="49.10751" lon="0.7341">
        <ele>80.41</ele>
        <time>2020-09-17T12:42:46Z</time>
      </trkpt>
      <trkpt lat="49.10749" lon="0.73407">
        <ele>80.41</ele>
        <time>2020-09-17T12:42:47Z</time>
      </trkpt>
      <trkpt lat="49.10747" lon="0.73403">
        <ele>80.41</ele>
        <time>2020-09-17T12:42:48Z</time>
      </trkpt>
      <trkpt lat="49.10745" lon="0.73399">
        <ele>79.93</ele>
        <time>2020-09-17T12:42:49Z</time>
      </trkpt>
      <trkpt lat="49.10711" lon="0.73334">
        <ele>79.93</ele>
        <time>2020-09-17T12:43:04Z</time>
      </trkpt>
      <trkpt lat="49.10707" lon="0.73326">
        <ele>81.37</ele>
        <time>2020-09-17T12:43:07Z</time>
      </trkpt>
      <trkpt lat="49.10689" lon="0.73296">
        <ele>82.33</ele>
        <time>2020-09-17T12:43:20Z</time>
      </trkpt>
      <trkpt lat="49.10679" lon="0.73281">
        <ele>84.25</ele>
        <time>2020-09-17T12:43:28Z</time>
      </trkpt>
      <trkpt lat="49.10676" lon="0.7328">
        <ele>84.25</ele>
        <time>2020-09-17T12:43:31Z</time>
      </trkpt>
      <trkpt lat="49.10675" lon="0.7328">
        <ele>84.25</ele>
        <time>2020-09-17T12:43:32Z</time>
      </trkpt>
      <trkpt lat="49.10673" lon="0.7328">
        <ele>84.25</ele>
        <time>2020-09-17T12:43:33Z</time>
      </trkpt>
      <trkpt lat="49.1067" lon="0.73281">
        <ele>84.25</ele>
        <time>2020-09-17T12:43:34Z</time>
      </trkpt>
      <trkpt lat="49.10668" lon="0.73282">
        <ele>84.25</ele>
        <time>2020-09-17T12:43:35Z</time>
      </trkpt>
      <trkpt lat="49.10665" lon="0.73285">
        <ele>84.25</ele>
        <time>2020-09-17T12:43:36Z</time>
      </trkpt>
      <trkpt lat="49.10663" lon="0.73289">
        <ele>84.25</ele>
        <time>2020-09-17T12:43:37Z</time>
      </trkpt>
      <trkpt lat="49.1066" lon="0.73292">
        <ele>84.25</ele>
        <time>2020-09-17T12:43:38Z</time>
      </trkpt>
      <trkpt lat="49.10658" lon="0.73297">
        <ele>83.77</ele>
        <time>2020-09-17T12:43:39Z</time>
      </trkpt>
      <trkpt lat="49.10601" lon="0.73379">
        <ele>83.77</ele>
        <time>2020-09-17T12:43:55Z</time>
      </trkpt>
      <trkpt lat="49.10575" lon="0.73411">
        <ele>82.81</ele>
        <time>2020-09-17T12:44:01Z</time>
      </trkpt>
      <trkpt lat="49.10478" lon="0.73511">
        <ele>82.33</ele>
        <time>2020-09-17T12:44:22Z</time>
      </trkpt>
      <trkpt lat="49.1045" lon="0.73535">
        <ele>82.33</ele>
        <time>2020-09-17T12:44:28Z</time>
      </trkpt>
      <trkpt lat="49.10429" lon="0.73557">
        <ele>83.77</ele>
        <time>2020-09-17T12:44:33Z</time>
      </trkpt>
      <trkpt lat="49.10426" lon="0.73562">
        <ele>83.77</ele>
        <time>2020-09-17T12:44:34Z</time>
      </trkpt>
      <trkpt lat="49.10424" lon="0.73567">
        <ele>83.77</ele>
        <time>2020-09-17T12:44:35Z</time>
      </trkpt>
      <trkpt lat="49.10423" lon="0.73576">
        <ele>83.77</ele>
        <time>2020-09-17T12:44:36Z</time>
      </trkpt>
      <trkpt lat="49.10423" lon="0.73583">
        <ele>83.77</ele>
        <time>2020-09-17T12:44:37Z</time>
      </trkpt>
      <trkpt lat="49.10423" lon="0.7359">
        <ele>83.77</ele>
        <time>2020-09-17T12:44:38Z</time>
      </trkpt>
      <trkpt lat="49.10425" lon="0.73599">
        <ele>83.77</ele>
        <time>2020-09-17T12:44:39Z</time>
      </trkpt>
      <trkpt lat="49.10427" lon="0.73606">
        <ele>82.33</ele>
        <time>2020-09-17T12:44:40Z</time>
      </trkpt>
      <trkpt lat="49.10428" lon="0.73614">
        <ele>82.33</ele>
        <time>2020-09-17T12:44:41Z</time>
      </trkpt>
      <trkpt lat="49.10449" lon="0.73731">
        <ele>80.89</ele>
        <time>2020-09-17T12:44:55Z</time>
      </trkpt>
      <trkpt lat="49.10453" lon="0.73766">
        <ele>80.89</ele>
        <time>2020-09-17T12:44:59Z</time>
      </trkpt>
      <trkpt lat="49.10458" lon="0.73782">
        <ele>80.89</ele>
        <time>2020-09-17T12:45:01Z</time>
      </trkpt>
      <trkpt lat="49.10461" lon="0.73789">
        <ele>80.89</ele>
        <time>2020-09-17T12:45:02Z</time>
      </trkpt>
      <trkpt lat="49.10464" lon="0.73796">
        <ele>80.89</ele>
        <time>2020-09-17T12:45:03Z</time>
      </trkpt>
      <trkpt lat="49.10468" lon="0.73803">
        <ele>80.89</ele>
        <time>2020-09-17T12:45:04Z</time>
      </trkpt>
      <trkpt lat="49.10473" lon="0.73809">
        <ele>80.89</ele>
        <time>2020-09-17T12:45:05Z</time>
      </trkpt>
      <trkpt lat="49.10478" lon="0.73814">
        <ele>79.93</ele>
        <time>2020-09-17T12:45:06Z</time>
      </trkpt>
      <trkpt lat="49.10482" lon="0.73819">
        <ele>79.93</ele>
        <time>2020-09-17T12:45:07Z</time>
      </trkpt>
      <trkpt lat="49.10488" lon="0.73823">
        <ele>79.93</ele>
        <time>2020-09-17T12:45:08Z</time>
      </trkpt>
      <trkpt lat="49.10493" lon="0.73829">
        <ele>79.93</ele>
        <time>2020-09-17T12:45:09Z</time>
      </trkpt>
      <trkpt lat="49.10498" lon="0.73836">
        <ele>79.93</ele>
        <time>2020-09-17T12:45:10Z</time>
      </trkpt>
      <trkpt lat="49.10502" lon="0.73843">
        <ele>79.93</ele>
        <time>2020-09-17T12:45:11Z</time>
      </trkpt>
      <trkpt lat="49.10505" lon="0.73852">
        <ele>79.93</ele>
        <time>2020-09-17T12:45:12Z</time>
      </trkpt>
      <trkpt lat="49.10508" lon="0.7386">
        <ele>79.93</ele>
        <time>2020-09-17T12:45:13Z</time>
      </trkpt>
      <trkpt lat="49.10509" lon="0.7387">
        <ele>79.93</ele>
        <time>2020-09-17T12:45:14Z</time>
      </trkpt>
      <trkpt lat="49.10511" lon="0.73879">
        <ele>79.93</ele>
        <time>2020-09-17T12:45:15Z</time>
      </trkpt>
      <trkpt lat="49.10511" lon="0.73889">
        <ele>79.93</ele>
        <time>2020-09-17T12:45:16Z</time>
      </trkpt>
      <trkpt lat="49.10511" lon="0.73899">
        <ele>79.93</ele>
        <time>2020-09-17T12:45:17Z</time>
      </trkpt>
      <trkpt lat="49.1051" lon="0.73909">
        <ele>79.93</ele>
        <time>2020-09-17T12:45:18Z</time>
      </trkpt>
      <trkpt lat="49.10507" lon="0.73918">
        <ele>79.93</ele>
        <time>2020-09-17T12:45:19Z</time>
      </trkpt>
      <trkpt lat="49.10504" lon="0.73926">
        <ele>79.93</ele>
        <time>2020-09-17T12:45:20Z</time>
      </trkpt>
      <trkpt lat="49.105" lon="0.73934">
        <ele>79.93</ele>
        <time>2020-09-17T12:45:21Z</time>
      </trkpt>
      <trkpt lat="49.10496" lon="0.73941">
        <ele>79.93</ele>
        <time>2020-09-17T12:45:22Z</time>
      </trkpt>
      <trkpt lat="49.10491" lon="0.73948">
        <ele>79.93</ele>
        <time>2020-09-17T12:45:23Z</time>
      </trkpt>
      <trkpt lat="49.1047" lon="0.73973">
        <ele>81.37</ele>
        <time>2020-09-17T12:45:27Z</time>
      </trkpt>
      <trkpt lat="49.10466" lon="0.73979">
        <ele>81.37</ele>
        <time>2020-09-17T12:45:28Z</time>
      </trkpt>
      <trkpt lat="49.10461" lon="0.73986">
        <ele>81.37</ele>
        <time>2020-09-17T12:45:29Z</time>
      </trkpt>
      <trkpt lat="49.10398" lon="0.74078">
        <ele>81.85</ele>
        <time>2020-09-17T12:45:44Z</time>
      </trkpt>
      <trkpt lat="49.10365" lon="0.74163">
        <ele>81.85</ele>
        <time>2020-09-17T12:45:57Z</time>
      </trkpt>
      <trkpt lat="49.10362" lon="0.74168">
        <ele>81.85</ele>
        <time>2020-09-17T12:45:58Z</time>
      </trkpt>
      <trkpt lat="49.10355" lon="0.74179">
        <ele>81.85</ele>
        <time>2020-09-17T12:46:00Z</time>
      </trkpt>
      <trkpt lat="49.10351" lon="0.74184">
        <ele>81.85</ele>
        <time>2020-09-17T12:46:01Z</time>
      </trkpt>
      <trkpt lat="49.10278" lon="0.74246">
        <ele>81.85</ele>
        <time>2020-09-17T12:46:16Z</time>
      </trkpt>
      <trkpt lat="49.10269" lon="0.74253">
        <ele>82.33</ele>
        <time>2020-09-17T12:46:18Z</time>
      </trkpt>
      <trkpt lat="49.10266" lon="0.74259">
        <ele>82.33</ele>
        <time>2020-09-17T12:46:19Z</time>
      </trkpt>
      <trkpt lat="49.10257" lon="0.74276">
        <ele>82.33</ele>
        <time>2020-09-17T12:46:22Z</time>
      </trkpt>
      <trkpt lat="49.10246" lon="0.74301">
        <ele>82.33</ele>
        <time>2020-09-17T12:46:26Z</time>
      </trkpt>
      <trkpt lat="49.10243" lon="0.74307">
        <ele>82.33</ele>
        <time>2020-09-17T12:46:27Z</time>
      </trkpt>
      <trkpt lat="49.10239" lon="0.74311">
        <ele>82.33</ele>
        <time>2020-09-17T12:46:28Z</time>
      </trkpt>
      <trkpt lat="49.10235" lon="0.74315">
        <ele>82.33</ele>
        <time>2020-09-17T12:46:29Z</time>
      </trkpt>
      <trkpt lat="49.1023" lon="0.74319">
        <ele>82.33</ele>
        <time>2020-09-17T12:46:30Z</time>
      </trkpt>
      <trkpt lat="49.10226" lon="0.74323">
        <ele>82.33</ele>
        <time>2020-09-17T12:46:31Z</time>
      </trkpt>
      <trkpt lat="49.1013" lon="0.74396">
        <ele>82.33</ele>
        <time>2020-09-17T12:46:49Z</time>
      </trkpt>
      <trkpt lat="49.10111" lon="0.74411">
        <ele>82.33</ele>
        <time>2020-09-17T12:46:53Z</time>
      </trkpt>
      <trkpt lat="49.10043" lon="0.74449">
        <ele>82.81</ele>
        <time>2020-09-17T12:47:08Z</time>
      </trkpt>
      <trkpt lat="49.1002" lon="0.7446">
        <ele>82.81</ele>
        <time>2020-09-17T12:47:14Z</time>
      </trkpt>
      <trkpt lat="49.09981" lon="0.74465">
        <ele>82.81</ele>
        <time>2020-09-17T12:47:24Z</time>
      </trkpt>
      <trkpt lat="49.09979" lon="0.74466">
        <ele>82.81</ele>
        <time>2020-09-17T12:47:25Z</time>
      </trkpt>
      <trkpt lat="49.09977" lon="0.74468">
        <ele>82.81</ele>
        <time>2020-09-17T12:47:26Z</time>
      </trkpt>
      <trkpt lat="49.09948" lon="0.74502">
        <ele>82.81</ele>
        <time>2020-09-17T12:47:38Z</time>
      </trkpt>
      <trkpt lat="49.09911" lon="0.74555">
        <ele>82.81</ele>
        <time>2020-09-17T12:47:52Z</time>
      </trkpt>
      <trkpt lat="49.09896" lon="0.74588">
        <ele>82.81</ele>
        <time>2020-09-17T12:48:02Z</time>
      </trkpt>
      <trkpt lat="49.09881" lon="0.74598">
        <ele>82.33</ele>
        <time>2020-09-17T12:48:11Z</time>
      </trkpt>
      <trkpt lat="49.09879" lon="0.74597">
        <ele>82.33</ele>
        <time>2020-09-17T12:48:12Z</time>
      </trkpt>
      <trkpt lat="49.09876" lon="0.74595">
        <ele>82.33</ele>
        <time>2020-09-17T12:48:13Z</time>
      </trkpt>
      <trkpt lat="49.09874" lon="0.74594">
        <ele>82.33</ele>
        <time>2020-09-17T12:48:14Z</time>
      </trkpt>
      <trkpt lat="49.09872" lon="0.74593">
        <ele>82.33</ele>
        <time>2020-09-17T12:48:15Z</time>
      </trkpt>
      <trkpt lat="49.09869" lon="0.7459">
        <ele>82.33</ele>
        <time>2020-09-17T12:48:16Z</time>
      </trkpt>
      <trkpt lat="49.09868" lon="0.74588">
        <ele>82.33</ele>
        <time>2020-09-17T12:48:17Z</time>
      </trkpt>
      <trkpt lat="49.09866" lon="0.74586">
        <ele>82.33</ele>
        <time>2020-09-17T12:48:18Z</time>
      </trkpt>
      <trkpt lat="49.09863" lon="0.74583">
        <ele>82.33</ele>
        <time>2020-09-17T12:48:19Z</time>
      </trkpt>
      <trkpt lat="49.0986" lon="0.74581">
        <ele>82.33</ele>
        <time>2020-09-17T12:48:20Z</time>
      </trkpt>
      <trkpt lat="49.09857" lon="0.7458">
        <ele>82.33</ele>
        <time>2020-09-17T12:48:21Z</time>
      </trkpt>
      <trkpt lat="49.09853" lon="0.74579">
        <ele>82.33</ele>
        <time>2020-09-17T12:48:22Z</time>
      </trkpt>
      <trkpt lat="49.0985" lon="0.74579">
        <ele>82.33</ele>
        <time>2020-09-17T12:48:23Z</time>
      </trkpt>
      <trkpt lat="49.09846" lon="0.7458">
        <ele>82.33</ele>
        <time>2020-09-17T12:48:24Z</time>
      </trkpt>
      <trkpt lat="49.09843" lon="0.74582">
        <ele>82.33</ele>
        <time>2020-09-17T12:48:25Z</time>
      </trkpt>
      <trkpt lat="49.0984" lon="0.74585">
        <ele>82.33</ele>
        <time>2020-09-17T12:48:26Z</time>
      </trkpt>
      <trkpt lat="49.09837" lon="0.74589">
        <ele>82.81</ele>
        <time>2020-09-17T12:48:27Z</time>
      </trkpt>
      <trkpt lat="49.09834" lon="0.74592">
        <ele>82.81</ele>
        <time>2020-09-17T12:48:28Z</time>
      </trkpt>
      <trkpt lat="49.09832" lon="0.74597">
        <ele>82.81</ele>
        <time>2020-09-17T12:48:29Z</time>
      </trkpt>
      <trkpt lat="49.09829" lon="0.74601">
        <ele>82.81</ele>
        <time>2020-09-17T12:48:30Z</time>
      </trkpt>
      <trkpt lat="49.09793" lon="0.7465">
        <ele>82.81</ele>
        <time>2020-09-17T12:48:44Z</time>
      </trkpt>
      <trkpt lat="49.09759" lon="0.7469">
        <ele>83.29</ele>
        <time>2020-09-17T12:48:55Z</time>
      </trkpt>
      <trkpt lat="49.09708" lon="0.74756">
        <ele>83.29</ele>
        <time>2020-09-17T12:49:08Z</time>
      </trkpt>
      <trkpt lat="49.09705" lon="0.74763">
        <ele>83.29</ele>
        <time>2020-09-17T12:49:09Z</time>
      </trkpt>
      <trkpt lat="49.09697" lon="0.74786">
        <ele>83.29</ele>
        <time>2020-09-17T12:49:13Z</time>
      </trkpt>
      <trkpt lat="49.09666" lon="0.74838">
        <ele>83.29</ele>
        <time>2020-09-17T12:49:25Z</time>
      </trkpt>
      <trkpt lat="49.09631" lon="0.74885">
        <ele>83.29</ele>
        <time>2020-09-17T12:49:39Z</time>
      </trkpt>
      <trkpt lat="49.09582" lon="0.74933">
        <ele>83.77</ele>
        <time>2020-09-17T12:49:54Z</time>
      </trkpt>
      <trkpt lat="49.09567" lon="0.74953">
        <ele>84.25</ele>
        <time>2020-09-17T12:50:00Z</time>
      </trkpt>
      <trkpt lat="49.09552" lon="0.74968">
        <ele>84.25</ele>
        <time>2020-09-17T12:50:04Z</time>
      </trkpt>
      <trkpt lat="49.09529" lon="0.75007">
        <ele>84.25</ele>
        <time>2020-09-17T12:50:13Z</time>
      </trkpt>
      <trkpt lat="49.09526" lon="0.75012">
        <ele>84.25</ele>
        <time>2020-09-17T12:50:14Z</time>
      </trkpt>
      <trkpt lat="49.09499" lon="0.75076">
        <ele>84.25</ele>
        <time>2020-09-17T12:50:27Z</time>
      </trkpt>
      <trkpt lat="49.09467" lon="0.75154">
        <ele>84.73</ele>
        <time>2020-09-17T12:50:42Z</time>
      </trkpt>
      <trkpt lat="49.09443" lon="0.75194">
        <ele>84.25</ele>
        <time>2020-09-17T12:50:56Z</time>
      </trkpt>
      <trkpt lat="49.094" lon="0.75271">
        <ele>84.73</ele>
        <time>2020-09-17T12:51:11Z</time>
      </trkpt>
      <trkpt lat="49.09342" lon="0.75393">
        <ele>84.73</ele>
        <time>2020-09-17T12:51:30Z</time>
      </trkpt>
      <trkpt lat="49.09281" lon="0.75489">
        <ele>84.73</ele>
        <time>2020-09-17T12:51:47Z</time>
      </trkpt>
      <trkpt lat="49.09211" lon="0.75593">
        <ele>84.73</ele>
        <time>2020-09-17T12:52:04Z</time>
      </trkpt>
      <trkpt lat="49.09143" lon="0.75644">
        <ele>84.73</ele>
        <time>2020-09-17T12:52:17Z</time>
      </trkpt>
      <trkpt lat="49.09094" lon="0.75703">
        <ele>84.73</ele>
        <time>2020-09-17T12:52:31Z</time>
      </trkpt>
      <trkpt lat="49.09035" lon="0.75802">
        <ele>85.21</ele>
        <time>2020-09-17T12:52:49Z</time>
      </trkpt>
      <trkpt lat="49.09" lon="0.75878">
        <ele>86.18</ele>
        <time>2020-09-17T12:53:02Z</time>
      </trkpt>
      <trkpt lat="49.08958" lon="0.75978">
        <ele>86.18</ele>
        <time>2020-09-17T12:53:18Z</time>
      </trkpt>
      <trkpt lat="49.08907" lon="0.76079">
        <ele>86.18</ele>
        <time>2020-09-17T12:53:37Z</time>
      </trkpt>
      <trkpt lat="49.08866" lon="0.76178">
        <ele>85.69</ele>
        <time>2020-09-17T12:53:54Z</time>
      </trkpt>
      <trkpt lat="49.0883" lon="0.76245">
        <ele>85.69</ele>
        <time>2020-09-17T12:54:09Z</time>
      </trkpt>
      <trkpt lat="49.08779" lon="0.76297">
        <ele>85.69</ele>
        <time>2020-09-17T12:54:26Z</time>
      </trkpt>
      <trkpt lat="49.08748" lon="0.76319">
        <ele>87.14</ele>
        <time>2020-09-17T12:54:40Z</time>
      </trkpt>
    </trkseg>
  </trk>
</gpx>